<?xml version="1.0" encoding="UTF-8"?>
<gpx version="1.1" creator="https://www.youtrack.es" xsi:schemaLocation="http://www.topografix.com/GPX/1/1 http://www.topografix.com/GPX/1/1/gpx.xsd http://www.garmin.com/xmlschemas/GpxExtensions/v3 http://www.garmin.com/xmlschemas/GpxExtensionsv3.xsd http://www.garmin.com/xmlschemas/TrackPointExtension/v1 http://www.garmin.com/xmlschemas/TrackPointExtensionv1.xsd" xmlns:gpxtpx="http://www.garmin.com/xmlschemas/TrackPointExtension/v1" xmlns:gpxx="http://www.garmin.com/xmlschemas/GpxExtensions/v3" xmlns:xsi="http://www.w3.org/2001/XMLSchema-instance">
  <metadata>
    <link href="https://www.youtrack.es">
      <text>YouTrack.es</text>
    </link>
    <time>2026-05-09T06:21:16Z</time>
  </metadata>
  <trk>
    <src>https://www.youtrack.es</src>
    <link href="https://www.youtrack.es/ruta/4305-mtb-la-rioja">
      <text>YouTrack.es</text>
    </link>
    <trkseg>
      <trkpt lat="42.576404000" lon="-2.854186000">
        <ele>382.00</ele>
        <time>2019-03-02T00:09:48Z</time>
      </trkpt>
      <trkpt lat="42.576124000" lon="-2.853570000">
        <ele>382.00</ele>
        <time>2019-03-02T00:09:51Z</time>
      </trkpt>
      <trkpt lat="42.576264000" lon="-2.853326000">
        <ele>382.00</ele>
        <time>2019-03-02T00:09:58Z</time>
      </trkpt>
      <trkpt lat="42.576361000" lon="-2.853164000">
        <ele>382.00</ele>
        <time>2019-03-02T00:10:01Z</time>
      </trkpt>
      <trkpt lat="42.576427000" lon="-2.853048000">
        <ele>381.40</ele>
        <time>2019-03-02T00:10:03Z</time>
      </trkpt>
      <trkpt lat="42.576498000" lon="-2.852929000">
        <ele>381.00</ele>
        <time>2019-03-02T00:10:05Z</time>
      </trkpt>
      <trkpt lat="42.576549000" lon="-2.852814000">
        <ele>380.60</ele>
        <time>2019-03-02T00:10:07Z</time>
      </trkpt>
      <trkpt lat="42.576619000" lon="-2.852733000">
        <ele>379.40</ele>
        <time>2019-03-02T00:10:10Z</time>
      </trkpt>
      <trkpt lat="42.576672000" lon="-2.852567000">
        <ele>377.20</ele>
        <time>2019-03-02T00:10:16Z</time>
      </trkpt>
      <trkpt lat="42.576750000" lon="-2.852423000">
        <ele>376.60</ele>
        <time>2019-03-02T00:10:19Z</time>
      </trkpt>
      <trkpt lat="42.576803000" lon="-2.852315000">
        <ele>376.40</ele>
        <time>2019-03-02T00:10:21Z</time>
      </trkpt>
      <trkpt lat="42.576862000" lon="-2.852133000">
        <ele>376.00</ele>
        <time>2019-03-02T00:10:24Z</time>
      </trkpt>
      <trkpt lat="42.576872000" lon="-2.851983000">
        <ele>375.80</ele>
        <time>2019-03-02T00:10:26Z</time>
      </trkpt>
      <trkpt lat="42.576886000" lon="-2.851822000">
        <ele>375.80</ele>
        <time>2019-03-02T00:10:28Z</time>
      </trkpt>
      <trkpt lat="42.576897000" lon="-2.851660000">
        <ele>375.40</ele>
        <time>2019-03-02T00:10:30Z</time>
      </trkpt>
      <trkpt lat="42.576959000" lon="-2.851469000">
        <ele>374.60</ele>
        <time>2019-03-02T00:10:33Z</time>
      </trkpt>
      <trkpt lat="42.577043000" lon="-2.851381000">
        <ele>374.20</ele>
        <time>2019-03-02T00:10:38Z</time>
      </trkpt>
      <trkpt lat="42.577107000" lon="-2.851243000">
        <ele>374.00</ele>
        <time>2019-03-02T00:10:42Z</time>
      </trkpt>
      <trkpt lat="42.577145000" lon="-2.851127000">
        <ele>373.60</ele>
        <time>2019-03-02T00:10:44Z</time>
      </trkpt>
      <trkpt lat="42.577189000" lon="-2.850997000">
        <ele>373.60</ele>
        <time>2019-03-02T00:10:46Z</time>
      </trkpt>
      <trkpt lat="42.577235000" lon="-2.850862000">
        <ele>373.60</ele>
        <time>2019-03-02T00:10:48Z</time>
      </trkpt>
      <trkpt lat="42.577336000" lon="-2.850566000">
        <ele>372.60</ele>
        <time>2019-03-02T00:10:52Z</time>
      </trkpt>
      <trkpt lat="42.577429000" lon="-2.850336000">
        <ele>372.20</ele>
        <time>2019-03-02T00:10:55Z</time>
      </trkpt>
      <trkpt lat="42.577491000" lon="-2.850192000">
        <ele>372.20</ele>
        <time>2019-03-02T00:10:57Z</time>
      </trkpt>
      <trkpt lat="42.577641000" lon="-2.849861000">
        <ele>371.20</ele>
        <time>2019-03-02T00:11:02Z</time>
      </trkpt>
      <trkpt lat="42.577703000" lon="-2.849742000">
        <ele>371.20</ele>
        <time>2019-03-02T00:11:04Z</time>
      </trkpt>
      <trkpt lat="42.577977000" lon="-2.849646000">
        <ele>371.20</ele>
        <time>2019-03-02T00:11:09Z</time>
      </trkpt>
      <trkpt lat="42.578152000" lon="-2.849775000">
        <ele>371.20</ele>
        <time>2019-03-02T00:11:12Z</time>
      </trkpt>
      <trkpt lat="42.578341000" lon="-2.849960000">
        <ele>370.00</ele>
        <time>2019-03-02T00:11:15Z</time>
      </trkpt>
      <trkpt lat="42.578784000" lon="-2.850389000">
        <ele>369.00</ele>
        <time>2019-03-02T00:11:22Z</time>
      </trkpt>
      <trkpt lat="42.579017000" lon="-2.850635000">
        <ele>370.00</ele>
        <time>2019-03-02T00:11:27Z</time>
      </trkpt>
      <trkpt lat="42.579039000" lon="-2.850956000">
        <ele>369.80</ele>
        <time>2019-03-02T00:11:31Z</time>
      </trkpt>
      <trkpt lat="42.578974000" lon="-2.851774000">
        <ele>369.20</ele>
        <time>2019-03-02T00:11:39Z</time>
      </trkpt>
      <trkpt lat="42.578955000" lon="-2.852078000">
        <ele>368.20</ele>
        <time>2019-03-02T00:11:42Z</time>
      </trkpt>
      <trkpt lat="42.578948000" lon="-2.852362000">
        <ele>367.80</ele>
        <time>2019-03-02T00:11:45Z</time>
      </trkpt>
      <trkpt lat="42.579055000" lon="-2.852685000">
        <ele>367.40</ele>
        <time>2019-03-02T00:11:49Z</time>
      </trkpt>
      <trkpt lat="42.579352000" lon="-2.853310000">
        <ele>367.20</ele>
        <time>2019-03-02T00:11:58Z</time>
      </trkpt>
      <trkpt lat="42.579684000" lon="-2.853908000">
        <ele>367.60</ele>
        <time>2019-03-02T00:12:08Z</time>
      </trkpt>
      <trkpt lat="42.580001000" lon="-2.854542000">
        <ele>368.40</ele>
        <time>2019-03-02T00:12:18Z</time>
      </trkpt>
      <trkpt lat="42.580324000" lon="-2.855145000">
        <ele>368.80</ele>
        <time>2019-03-02T00:12:28Z</time>
      </trkpt>
      <trkpt lat="42.580697000" lon="-2.855692000">
        <ele>369.00</ele>
        <time>2019-03-02T00:12:38Z</time>
      </trkpt>
      <trkpt lat="42.580938000" lon="-2.856162000">
        <ele>369.20</ele>
        <time>2019-03-02T00:12:46Z</time>
      </trkpt>
      <trkpt lat="42.581080000" lon="-2.856739000">
        <ele>370.40</ele>
        <time>2019-03-02T00:12:55Z</time>
      </trkpt>
      <trkpt lat="42.581099000" lon="-2.856979000">
        <ele>371.20</ele>
        <time>2019-03-02T00:12:59Z</time>
      </trkpt>
      <trkpt lat="42.581061000" lon="-2.857457000">
        <ele>372.80</ele>
        <time>2019-03-02T00:13:07Z</time>
      </trkpt>
      <trkpt lat="42.581078000" lon="-2.857627000">
        <ele>374.00</ele>
        <time>2019-03-02T00:13:10Z</time>
      </trkpt>
      <trkpt lat="42.581121000" lon="-2.857834000">
        <ele>375.00</ele>
        <time>2019-03-02T00:13:14Z</time>
      </trkpt>
      <trkpt lat="42.581295000" lon="-2.858233000">
        <ele>376.40</ele>
        <time>2019-03-02T00:13:23Z</time>
      </trkpt>
      <trkpt lat="42.581678000" lon="-2.858505000">
        <ele>377.40</ele>
        <time>2019-03-02T00:13:35Z</time>
      </trkpt>
      <trkpt lat="42.581953000" lon="-2.858481000">
        <ele>378.60</ele>
        <time>2019-03-02T00:13:43Z</time>
      </trkpt>
      <trkpt lat="42.582096000" lon="-2.858475000">
        <ele>379.60</ele>
        <time>2019-03-02T00:13:47Z</time>
      </trkpt>
      <trkpt lat="42.582238000" lon="-2.858517000">
        <ele>381.00</ele>
        <time>2019-03-02T00:13:51Z</time>
      </trkpt>
      <trkpt lat="42.582340000" lon="-2.858569000">
        <ele>382.20</ele>
        <time>2019-03-02T00:13:54Z</time>
      </trkpt>
      <trkpt lat="42.582666000" lon="-2.858794000">
        <ele>383.40</ele>
        <time>2019-03-02T00:14:04Z</time>
      </trkpt>
      <trkpt lat="42.582862000" lon="-2.858927000">
        <ele>384.40</ele>
        <time>2019-03-02T00:14:10Z</time>
      </trkpt>
      <trkpt lat="42.582998000" lon="-2.859007000">
        <ele>385.40</ele>
        <time>2019-03-02T00:14:14Z</time>
      </trkpt>
      <trkpt lat="42.583168000" lon="-2.859099000">
        <ele>386.40</ele>
        <time>2019-03-02T00:14:19Z</time>
      </trkpt>
      <trkpt lat="42.583698000" lon="-2.859393000">
        <ele>387.20</ele>
        <time>2019-03-02T00:14:34Z</time>
      </trkpt>
      <trkpt lat="42.583902000" lon="-2.859528000">
        <ele>387.60</ele>
        <time>2019-03-02T00:14:40Z</time>
      </trkpt>
      <trkpt lat="42.584198000" lon="-2.859730000">
        <ele>388.60</ele>
        <time>2019-03-02T00:14:49Z</time>
      </trkpt>
      <trkpt lat="42.584594000" lon="-2.859996000">
        <ele>389.80</ele>
        <time>2019-03-02T00:15:01Z</time>
      </trkpt>
      <trkpt lat="42.584992000" lon="-2.860262000">
        <ele>391.00</ele>
        <time>2019-03-02T00:15:13Z</time>
      </trkpt>
      <trkpt lat="42.585380000" lon="-2.860483000">
        <ele>392.00</ele>
        <time>2019-03-02T00:15:25Z</time>
      </trkpt>
      <trkpt lat="42.585647000" lon="-2.860532000">
        <ele>393.40</ele>
        <time>2019-03-02T00:15:33Z</time>
      </trkpt>
      <trkpt lat="42.585807000" lon="-2.860517000">
        <ele>394.40</ele>
        <time>2019-03-02T00:15:38Z</time>
      </trkpt>
      <trkpt lat="42.586029000" lon="-2.860454000">
        <ele>395.60</ele>
        <time>2019-03-02T00:15:45Z</time>
      </trkpt>
      <trkpt lat="42.586255000" lon="-2.860339000">
        <ele>396.60</ele>
        <time>2019-03-02T00:15:52Z</time>
      </trkpt>
      <trkpt lat="42.586496000" lon="-2.860222000">
        <ele>397.80</ele>
        <time>2019-03-02T00:15:59Z</time>
      </trkpt>
      <trkpt lat="42.586707000" lon="-2.860134000">
        <ele>398.80</ele>
        <time>2019-03-02T00:16:05Z</time>
      </trkpt>
      <trkpt lat="42.586986000" lon="-2.860018000">
        <ele>399.80</ele>
        <time>2019-03-02T00:16:13Z</time>
      </trkpt>
      <trkpt lat="42.587429000" lon="-2.859819000">
        <ele>400.80</ele>
        <time>2019-03-02T00:16:24Z</time>
      </trkpt>
      <trkpt lat="42.587525000" lon="-2.859703000">
        <ele>400.80</ele>
        <time>2019-03-02T00:16:27Z</time>
      </trkpt>
      <trkpt lat="42.588041000" lon="-2.859401000">
        <ele>400.40</ele>
        <time>2019-03-02T00:16:39Z</time>
      </trkpt>
      <trkpt lat="42.588255000" lon="-2.859244000">
        <ele>400.20</ele>
        <time>2019-03-02T00:16:44Z</time>
      </trkpt>
      <trkpt lat="42.588403000" lon="-2.859193000">
        <ele>400.00</ele>
        <time>2019-03-02T00:16:47Z</time>
      </trkpt>
      <trkpt lat="42.588636000" lon="-2.859274000">
        <ele>399.80</ele>
        <time>2019-03-02T00:16:51Z</time>
      </trkpt>
      <trkpt lat="42.589046000" lon="-2.859406000">
        <ele>398.80</ele>
        <time>2019-03-02T00:16:56Z</time>
      </trkpt>
      <trkpt lat="42.589129000" lon="-2.859462000">
        <ele>398.80</ele>
        <time>2019-03-02T00:16:57Z</time>
      </trkpt>
      <trkpt lat="42.589281000" lon="-2.859612000">
        <ele>397.60</ele>
        <time>2019-03-02T00:16:59Z</time>
      </trkpt>
      <trkpt lat="42.589357000" lon="-2.859693000">
        <ele>396.40</ele>
        <time>2019-03-02T00:17:00Z</time>
      </trkpt>
      <trkpt lat="42.589432000" lon="-2.859774000">
        <ele>395.00</ele>
        <time>2019-03-02T00:17:01Z</time>
      </trkpt>
      <trkpt lat="42.589515000" lon="-2.859842000">
        <ele>393.80</ele>
        <time>2019-03-02T00:17:02Z</time>
      </trkpt>
      <trkpt lat="42.589700000" lon="-2.859937000">
        <ele>392.40</ele>
        <time>2019-03-02T00:17:04Z</time>
      </trkpt>
      <trkpt lat="42.589903000" lon="-2.860000000">
        <ele>391.40</ele>
        <time>2019-03-02T00:17:06Z</time>
      </trkpt>
      <trkpt lat="42.590115000" lon="-2.860049000">
        <ele>390.40</ele>
        <time>2019-03-02T00:17:08Z</time>
      </trkpt>
      <trkpt lat="42.590325000" lon="-2.860113000">
        <ele>389.20</ele>
        <time>2019-03-02T00:17:10Z</time>
      </trkpt>
      <trkpt lat="42.590518000" lon="-2.860202000">
        <ele>387.80</ele>
        <time>2019-03-02T00:17:12Z</time>
      </trkpt>
      <trkpt lat="42.590704000" lon="-2.860280000">
        <ele>386.80</ele>
        <time>2019-03-02T00:17:14Z</time>
      </trkpt>
      <trkpt lat="42.590795000" lon="-2.860314000">
        <ele>385.40</ele>
        <time>2019-03-02T00:17:15Z</time>
      </trkpt>
      <trkpt lat="42.590963000" lon="-2.860375000">
        <ele>382.20</ele>
        <time>2019-03-02T00:17:17Z</time>
      </trkpt>
      <trkpt lat="42.591122000" lon="-2.860432000">
        <ele>380.60</ele>
        <time>2019-03-02T00:17:19Z</time>
      </trkpt>
      <trkpt lat="42.591322000" lon="-2.860407000">
        <ele>379.40</ele>
        <time>2019-03-02T00:17:22Z</time>
      </trkpt>
      <trkpt lat="42.591457000" lon="-2.860340000">
        <ele>378.40</ele>
        <time>2019-03-02T00:17:24Z</time>
      </trkpt>
      <trkpt lat="42.591678000" lon="-2.860423000">
        <ele>377.20</ele>
        <time>2019-03-02T00:17:28Z</time>
      </trkpt>
      <trkpt lat="42.591761000" lon="-2.860498000">
        <ele>376.00</ele>
        <time>2019-03-02T00:17:30Z</time>
      </trkpt>
      <trkpt lat="42.591814000" lon="-2.860801000">
        <ele>375.20</ele>
        <time>2019-03-02T00:17:37Z</time>
      </trkpt>
      <trkpt lat="42.591844000" lon="-2.861237000">
        <ele>377.20</ele>
        <time>2019-03-02T00:17:53Z</time>
      </trkpt>
      <trkpt lat="42.591907000" lon="-2.861417000">
        <ele>378.20</ele>
        <time>2019-03-02T00:18:00Z</time>
      </trkpt>
      <trkpt lat="42.591980000" lon="-2.861585000">
        <ele>379.40</ele>
        <time>2019-03-02T00:18:05Z</time>
      </trkpt>
      <trkpt lat="42.592232000" lon="-2.861916000">
        <ele>380.60</ele>
        <time>2019-03-02T00:18:18Z</time>
      </trkpt>
      <trkpt lat="42.592262000" lon="-2.862081000">
        <ele>381.80</ele>
        <time>2019-03-02T00:18:23Z</time>
      </trkpt>
      <trkpt lat="42.592350000" lon="-2.862430000">
        <ele>384.20</ele>
        <time>2019-03-02T00:18:33Z</time>
      </trkpt>
      <trkpt lat="42.592490000" lon="-2.862658000">
        <ele>385.20</ele>
        <time>2019-03-02T00:18:39Z</time>
      </trkpt>
      <trkpt lat="42.592573000" lon="-2.863205000">
        <ele>386.60</ele>
        <time>2019-03-02T00:18:53Z</time>
      </trkpt>
      <trkpt lat="42.592466000" lon="-2.863297000">
        <ele>389.40</ele>
        <time>2019-03-02T00:18:58Z</time>
      </trkpt>
      <trkpt lat="42.592331000" lon="-2.863454000">
        <ele>391.60</ele>
        <time>2019-03-02T00:19:05Z</time>
      </trkpt>
      <trkpt lat="42.592269000" lon="-2.863571000">
        <ele>392.80</ele>
        <time>2019-03-02T00:19:09Z</time>
      </trkpt>
      <trkpt lat="42.592251000" lon="-2.863720000">
        <ele>394.00</ele>
        <time>2019-03-02T00:19:13Z</time>
      </trkpt>
      <trkpt lat="42.592303000" lon="-2.863952000">
        <ele>395.00</ele>
        <time>2019-03-02T00:19:19Z</time>
      </trkpt>
      <trkpt lat="42.592460000" lon="-2.864209000">
        <ele>396.00</ele>
        <time>2019-03-02T00:19:27Z</time>
      </trkpt>
      <trkpt lat="42.592825000" lon="-2.864793000">
        <ele>397.00</ele>
        <time>2019-03-02T00:19:42Z</time>
      </trkpt>
      <trkpt lat="42.592862000" lon="-2.864933000">
        <ele>397.20</ele>
        <time>2019-03-02T00:19:45Z</time>
      </trkpt>
      <trkpt lat="42.592927000" lon="-2.865344000">
        <ele>398.40</ele>
        <time>2019-03-02T00:19:54Z</time>
      </trkpt>
      <trkpt lat="42.592986000" lon="-2.865681000">
        <ele>399.60</ele>
        <time>2019-03-02T00:20:03Z</time>
      </trkpt>
      <trkpt lat="42.593067000" lon="-2.865864000">
        <ele>401.80</ele>
        <time>2019-03-02T00:20:10Z</time>
      </trkpt>
      <trkpt lat="42.593149000" lon="-2.865933000">
        <ele>402.80</ele>
        <time>2019-03-02T00:20:14Z</time>
      </trkpt>
      <trkpt lat="42.593246000" lon="-2.865985000">
        <ele>404.00</ele>
        <time>2019-03-02T00:20:18Z</time>
      </trkpt>
      <trkpt lat="42.593400000" lon="-2.866055000">
        <ele>405.00</ele>
        <time>2019-03-02T00:20:24Z</time>
      </trkpt>
      <trkpt lat="42.593554000" lon="-2.866110000">
        <ele>406.20</ele>
        <time>2019-03-02T00:20:30Z</time>
      </trkpt>
      <trkpt lat="42.593722000" lon="-2.866165000">
        <ele>407.20</ele>
        <time>2019-03-02T00:20:36Z</time>
      </trkpt>
      <trkpt lat="42.593940000" lon="-2.866376000">
        <ele>408.40</ele>
        <time>2019-03-02T00:20:44Z</time>
      </trkpt>
      <trkpt lat="42.594115000" lon="-2.866565000">
        <ele>409.60</ele>
        <time>2019-03-02T00:20:50Z</time>
      </trkpt>
      <trkpt lat="42.594264000" lon="-2.866931000">
        <ele>410.80</ele>
        <time>2019-03-02T00:20:59Z</time>
      </trkpt>
      <trkpt lat="42.594467000" lon="-2.867253000">
        <ele>411.60</ele>
        <time>2019-03-02T00:21:07Z</time>
      </trkpt>
      <trkpt lat="42.594541000" lon="-2.867487000">
        <ele>412.20</ele>
        <time>2019-03-02T00:21:11Z</time>
      </trkpt>
      <trkpt lat="42.594588000" lon="-2.867675000">
        <ele>412.20</ele>
        <time>2019-03-02T00:21:14Z</time>
      </trkpt>
      <trkpt lat="42.594880000" lon="-2.868064000">
        <ele>412.20</ele>
        <time>2019-03-02T00:21:22Z</time>
      </trkpt>
      <trkpt lat="42.595034000" lon="-2.868453000">
        <ele>412.00</ele>
        <time>2019-03-02T00:21:28Z</time>
      </trkpt>
      <trkpt lat="42.595056000" lon="-2.868806000">
        <ele>411.80</ele>
        <time>2019-03-02T00:21:33Z</time>
      </trkpt>
      <trkpt lat="42.595121000" lon="-2.869077000">
        <ele>411.80</ele>
        <time>2019-03-02T00:21:37Z</time>
      </trkpt>
      <trkpt lat="42.595201000" lon="-2.869271000">
        <ele>411.80</ele>
        <time>2019-03-02T00:21:40Z</time>
      </trkpt>
      <trkpt lat="42.595623000" lon="-2.869783000">
        <ele>411.60</ele>
        <time>2019-03-02T00:21:50Z</time>
      </trkpt>
      <trkpt lat="42.595815000" lon="-2.870069000">
        <ele>411.00</ele>
        <time>2019-03-02T00:21:55Z</time>
      </trkpt>
      <trkpt lat="42.596268000" lon="-2.870504000">
        <ele>410.20</ele>
        <time>2019-03-02T00:22:05Z</time>
      </trkpt>
      <trkpt lat="42.596491000" lon="-2.870661000">
        <ele>410.20</ele>
        <time>2019-03-02T00:22:10Z</time>
      </trkpt>
      <trkpt lat="42.596578000" lon="-2.870701000">
        <ele>410.20</ele>
        <time>2019-03-02T00:22:12Z</time>
      </trkpt>
      <trkpt lat="42.596743000" lon="-2.870893000">
        <ele>410.60</ele>
        <time>2019-03-02T00:22:17Z</time>
      </trkpt>
      <trkpt lat="42.596985000" lon="-2.871333000">
        <ele>412.00</ele>
        <time>2019-03-02T00:22:26Z</time>
      </trkpt>
      <trkpt lat="42.597175000" lon="-2.871584000">
        <ele>413.00</ele>
        <time>2019-03-02T00:22:34Z</time>
      </trkpt>
      <trkpt lat="42.597319000" lon="-2.871667000">
        <ele>414.20</ele>
        <time>2019-03-02T00:22:38Z</time>
      </trkpt>
      <trkpt lat="42.597861000" lon="-2.871975000">
        <ele>413.40</ele>
        <time>2019-03-02T00:22:49Z</time>
      </trkpt>
      <trkpt lat="42.598285000" lon="-2.872392000">
        <ele>413.20</ele>
        <time>2019-03-02T00:23:00Z</time>
      </trkpt>
      <trkpt lat="42.598618000" lon="-2.872763000">
        <ele>415.20</ele>
        <time>2019-03-02T00:23:11Z</time>
      </trkpt>
      <trkpt lat="42.598730000" lon="-2.873068000">
        <ele>416.40</ele>
        <time>2019-03-02T00:23:19Z</time>
      </trkpt>
      <trkpt lat="42.598703000" lon="-2.873197000">
        <ele>417.60</ele>
        <time>2019-03-02T00:23:23Z</time>
      </trkpt>
      <trkpt lat="42.598610000" lon="-2.873314000">
        <ele>419.00</ele>
        <time>2019-03-02T00:23:27Z</time>
      </trkpt>
      <trkpt lat="42.598445000" lon="-2.873528000">
        <ele>421.20</ele>
        <time>2019-03-02T00:23:33Z</time>
      </trkpt>
      <trkpt lat="42.598214000" lon="-2.873917000">
        <ele>421.60</ele>
        <time>2019-03-02T00:23:41Z</time>
      </trkpt>
      <trkpt lat="42.598027000" lon="-2.874329000">
        <ele>421.80</ele>
        <time>2019-03-02T00:23:49Z</time>
      </trkpt>
      <trkpt lat="42.598160000" lon="-2.874477000">
        <ele>421.60</ele>
        <time>2019-03-02T00:23:55Z</time>
      </trkpt>
      <trkpt lat="42.598448000" lon="-2.874548000">
        <ele>422.40</ele>
        <time>2019-03-02T00:24:05Z</time>
      </trkpt>
      <trkpt lat="42.598588000" lon="-2.874585000">
        <ele>423.80</ele>
        <time>2019-03-02T00:24:10Z</time>
      </trkpt>
      <trkpt lat="42.598758000" lon="-2.874654000">
        <ele>424.80</ele>
        <time>2019-03-02T00:24:16Z</time>
      </trkpt>
      <trkpt lat="42.598925000" lon="-2.874822000">
        <ele>426.00</ele>
        <time>2019-03-02T00:24:23Z</time>
      </trkpt>
      <trkpt lat="42.598992000" lon="-2.875051000">
        <ele>427.20</ele>
        <time>2019-03-02T00:24:31Z</time>
      </trkpt>
      <trkpt lat="42.599078000" lon="-2.875248000">
        <ele>429.60</ele>
        <time>2019-03-02T00:24:39Z</time>
      </trkpt>
      <trkpt lat="42.599133000" lon="-2.875472000">
        <ele>431.60</ele>
        <time>2019-03-02T00:24:46Z</time>
      </trkpt>
      <trkpt lat="42.599170000" lon="-2.876224000">
        <ele>432.40</ele>
        <time>2019-03-02T00:25:01Z</time>
      </trkpt>
      <trkpt lat="42.599057000" lon="-2.876694000">
        <ele>433.00</ele>
        <time>2019-03-02T00:25:12Z</time>
      </trkpt>
      <trkpt lat="42.599102000" lon="-2.876829000">
        <ele>434.40</ele>
        <time>2019-03-02T00:25:18Z</time>
      </trkpt>
      <trkpt lat="42.599317000" lon="-2.876952000">
        <ele>436.60</ele>
        <time>2019-03-02T00:25:28Z</time>
      </trkpt>
      <trkpt lat="42.599460000" lon="-2.877031000">
        <ele>437.80</ele>
        <time>2019-03-02T00:25:34Z</time>
      </trkpt>
      <trkpt lat="42.599609000" lon="-2.877065000">
        <ele>438.80</ele>
        <time>2019-03-02T00:25:40Z</time>
      </trkpt>
      <trkpt lat="42.599762000" lon="-2.877063000">
        <ele>439.80</ele>
        <time>2019-03-02T00:25:46Z</time>
      </trkpt>
      <trkpt lat="42.599888000" lon="-2.877039000">
        <ele>441.00</ele>
        <time>2019-03-02T00:25:51Z</time>
      </trkpt>
      <trkpt lat="42.600016000" lon="-2.877004000">
        <ele>442.00</ele>
        <time>2019-03-02T00:25:56Z</time>
      </trkpt>
      <trkpt lat="42.600363000" lon="-2.877074000">
        <ele>443.20</ele>
        <time>2019-03-02T00:26:09Z</time>
      </trkpt>
      <trkpt lat="42.600567000" lon="-2.877180000">
        <ele>444.20</ele>
        <time>2019-03-02T00:26:16Z</time>
      </trkpt>
      <trkpt lat="42.600879000" lon="-2.877433000">
        <ele>445.40</ele>
        <time>2019-03-02T00:26:27Z</time>
      </trkpt>
      <trkpt lat="42.601054000" lon="-2.877700000">
        <ele>446.60</ele>
        <time>2019-03-02T00:26:34Z</time>
      </trkpt>
      <trkpt lat="42.601200000" lon="-2.877821000">
        <ele>447.00</ele>
        <time>2019-03-02T00:26:38Z</time>
      </trkpt>
      <trkpt lat="42.601709000" lon="-2.878198000">
        <ele>446.00</ele>
        <time>2019-03-02T00:26:50Z</time>
      </trkpt>
      <trkpt lat="42.602154000" lon="-2.878698000">
        <ele>446.00</ele>
        <time>2019-03-02T00:27:02Z</time>
      </trkpt>
      <trkpt lat="42.602644000" lon="-2.879060000">
        <ele>447.60</ele>
        <time>2019-03-02T00:27:16Z</time>
      </trkpt>
      <trkpt lat="42.602866000" lon="-2.879317000">
        <ele>449.00</ele>
        <time>2019-03-02T00:27:24Z</time>
      </trkpt>
      <trkpt lat="42.602994000" lon="-2.879632000">
        <ele>450.00</ele>
        <time>2019-03-02T00:27:31Z</time>
      </trkpt>
      <trkpt lat="42.603194000" lon="-2.880147000">
        <ele>451.00</ele>
        <time>2019-03-02T00:27:42Z</time>
      </trkpt>
      <trkpt lat="42.603296000" lon="-2.880236000">
        <ele>451.40</ele>
        <time>2019-03-02T00:27:45Z</time>
      </trkpt>
      <trkpt lat="42.603798000" lon="-2.880413000">
        <ele>452.20</ele>
        <time>2019-03-02T00:27:59Z</time>
      </trkpt>
      <trkpt lat="42.604067000" lon="-2.880559000">
        <ele>453.20</ele>
        <time>2019-03-02T00:28:08Z</time>
      </trkpt>
      <trkpt lat="42.604376000" lon="-2.880843000">
        <ele>454.20</ele>
        <time>2019-03-02T00:28:19Z</time>
      </trkpt>
      <trkpt lat="42.604636000" lon="-2.881164000">
        <ele>455.20</ele>
        <time>2019-03-02T00:28:29Z</time>
      </trkpt>
      <trkpt lat="42.604927000" lon="-2.881401000">
        <ele>456.40</ele>
        <time>2019-03-02T00:28:39Z</time>
      </trkpt>
      <trkpt lat="42.605106000" lon="-2.881498000">
        <ele>457.40</ele>
        <time>2019-03-02T00:28:52Z</time>
      </trkpt>
      <trkpt lat="42.605631000" lon="-2.881807000">
        <ele>459.00</ele>
        <time>2019-03-02T00:29:16Z</time>
      </trkpt>
      <trkpt lat="42.605831000" lon="-2.881965000">
        <ele>459.60</ele>
        <time>2019-03-02T00:29:23Z</time>
      </trkpt>
      <trkpt lat="42.606028000" lon="-2.882222000">
        <ele>460.60</ele>
        <time>2019-03-02T00:29:31Z</time>
      </trkpt>
      <trkpt lat="42.606285000" lon="-2.882518000">
        <ele>461.80</ele>
        <time>2019-03-02T00:29:41Z</time>
      </trkpt>
      <trkpt lat="42.606679000" lon="-2.882713000">
        <ele>463.20</ele>
        <time>2019-03-02T00:29:54Z</time>
      </trkpt>
      <trkpt lat="42.606843000" lon="-2.882794000">
        <ele>464.20</ele>
        <time>2019-03-02T00:30:00Z</time>
      </trkpt>
      <trkpt lat="42.606997000" lon="-2.882878000">
        <ele>465.20</ele>
        <time>2019-03-02T00:30:06Z</time>
      </trkpt>
      <trkpt lat="42.607118000" lon="-2.882941000">
        <ele>466.40</ele>
        <time>2019-03-02T00:30:11Z</time>
      </trkpt>
      <trkpt lat="42.607208000" lon="-2.882982000">
        <ele>467.40</ele>
        <time>2019-03-02T00:30:15Z</time>
      </trkpt>
      <trkpt lat="42.607337000" lon="-2.883043000">
        <ele>468.60</ele>
        <time>2019-03-02T00:30:21Z</time>
      </trkpt>
      <trkpt lat="42.607423000" lon="-2.883082000">
        <ele>469.60</ele>
        <time>2019-03-02T00:30:25Z</time>
      </trkpt>
      <trkpt lat="42.607509000" lon="-2.883125000">
        <ele>470.60</ele>
        <time>2019-03-02T00:30:29Z</time>
      </trkpt>
      <trkpt lat="42.607615000" lon="-2.883178000">
        <ele>471.80</ele>
        <time>2019-03-02T00:30:34Z</time>
      </trkpt>
      <trkpt lat="42.607724000" lon="-2.883229000">
        <ele>472.80</ele>
        <time>2019-03-02T00:30:39Z</time>
      </trkpt>
      <trkpt lat="42.607836000" lon="-2.883282000">
        <ele>473.80</ele>
        <time>2019-03-02T00:30:44Z</time>
      </trkpt>
      <trkpt lat="42.607980000" lon="-2.883314000">
        <ele>475.00</ele>
        <time>2019-03-02T00:30:50Z</time>
      </trkpt>
      <trkpt lat="42.608249000" lon="-2.883310000">
        <ele>477.00</ele>
        <time>2019-03-02T00:31:00Z</time>
      </trkpt>
      <trkpt lat="42.608475000" lon="-2.883332000">
        <ele>478.20</ele>
        <time>2019-03-02T00:31:08Z</time>
      </trkpt>
      <trkpt lat="42.608686000" lon="-2.883408000">
        <ele>479.20</ele>
        <time>2019-03-02T00:31:16Z</time>
      </trkpt>
      <trkpt lat="42.608862000" lon="-2.883511000">
        <ele>480.40</ele>
        <time>2019-03-02T00:31:25Z</time>
      </trkpt>
      <trkpt lat="42.608930000" lon="-2.883612000">
        <ele>481.60</ele>
        <time>2019-03-02T00:31:29Z</time>
      </trkpt>
      <trkpt lat="42.608996000" lon="-2.883739000">
        <ele>482.60</ele>
        <time>2019-03-02T00:31:33Z</time>
      </trkpt>
      <trkpt lat="42.609206000" lon="-2.884199000">
        <ele>484.00</ele>
        <time>2019-03-02T00:31:47Z</time>
      </trkpt>
      <trkpt lat="42.609370000" lon="-2.884472000">
        <ele>485.20</ele>
        <time>2019-03-02T00:31:57Z</time>
      </trkpt>
      <trkpt lat="42.609446000" lon="-2.884614000">
        <ele>486.20</ele>
        <time>2019-03-02T00:32:02Z</time>
      </trkpt>
      <trkpt lat="42.609484000" lon="-2.884864000">
        <ele>487.40</ele>
        <time>2019-03-02T00:32:09Z</time>
      </trkpt>
      <trkpt lat="42.609573000" lon="-2.885299000">
        <ele>488.40</ele>
        <time>2019-03-02T00:32:21Z</time>
      </trkpt>
      <trkpt lat="42.609761000" lon="-2.885520000">
        <ele>489.60</ele>
        <time>2019-03-02T00:32:29Z</time>
      </trkpt>
      <trkpt lat="42.609980000" lon="-2.885795000">
        <ele>490.80</ele>
        <time>2019-03-02T00:32:40Z</time>
      </trkpt>
      <trkpt lat="42.610038000" lon="-2.885917000">
        <ele>492.20</ele>
        <time>2019-03-02T00:32:44Z</time>
      </trkpt>
      <trkpt lat="42.610166000" lon="-2.886165000">
        <ele>494.40</ele>
        <time>2019-03-02T00:32:54Z</time>
      </trkpt>
      <trkpt lat="42.610333000" lon="-2.886220000">
        <ele>495.40</ele>
        <time>2019-03-02T00:33:00Z</time>
      </trkpt>
      <trkpt lat="42.610593000" lon="-2.886392000">
        <ele>496.40</ele>
        <time>2019-03-02T00:33:11Z</time>
      </trkpt>
      <trkpt lat="42.610688000" lon="-2.886497000">
        <ele>497.40</ele>
        <time>2019-03-02T00:33:15Z</time>
      </trkpt>
      <trkpt lat="42.610991000" lon="-2.886818000">
        <ele>498.40</ele>
        <time>2019-03-02T00:33:28Z</time>
      </trkpt>
      <trkpt lat="42.611269000" lon="-2.887042000">
        <ele>499.60</ele>
        <time>2019-03-02T00:33:39Z</time>
      </trkpt>
      <trkpt lat="42.611424000" lon="-2.887172000">
        <ele>500.60</ele>
        <time>2019-03-02T00:33:45Z</time>
      </trkpt>
      <trkpt lat="42.611526000" lon="-2.887366000">
        <ele>501.80</ele>
        <time>2019-03-02T00:33:51Z</time>
      </trkpt>
      <trkpt lat="42.611649000" lon="-2.887586000">
        <ele>502.80</ele>
        <time>2019-03-02T00:33:58Z</time>
      </trkpt>
      <trkpt lat="42.611939000" lon="-2.887725000">
        <ele>503.80</ele>
        <time>2019-03-02T00:34:09Z</time>
      </trkpt>
      <trkpt lat="42.612128000" lon="-2.887776000">
        <ele>505.20</ele>
        <time>2019-03-02T00:34:15Z</time>
      </trkpt>
      <trkpt lat="42.612448000" lon="-2.887899000">
        <ele>506.40</ele>
        <time>2019-03-02T00:34:27Z</time>
      </trkpt>
      <trkpt lat="42.612592000" lon="-2.887988000">
        <ele>507.40</ele>
        <time>2019-03-02T00:34:34Z</time>
      </trkpt>
      <trkpt lat="42.612692000" lon="-2.888063000">
        <ele>508.40</ele>
        <time>2019-03-02T00:34:39Z</time>
      </trkpt>
      <trkpt lat="42.612798000" lon="-2.888149000">
        <ele>509.60</ele>
        <time>2019-03-02T00:34:44Z</time>
      </trkpt>
      <trkpt lat="42.612962000" lon="-2.888280000">
        <ele>510.80</ele>
        <time>2019-03-02T00:34:52Z</time>
      </trkpt>
      <trkpt lat="42.613043000" lon="-2.888349000">
        <ele>512.20</ele>
        <time>2019-03-02T00:34:56Z</time>
      </trkpt>
      <trkpt lat="42.613148000" lon="-2.888441000">
        <ele>513.20</ele>
        <time>2019-03-02T00:35:01Z</time>
      </trkpt>
      <trkpt lat="42.613324000" lon="-2.888629000">
        <ele>514.40</ele>
        <time>2019-03-02T00:35:11Z</time>
      </trkpt>
      <trkpt lat="42.613443000" lon="-2.888729000">
        <ele>515.40</ele>
        <time>2019-03-02T00:35:19Z</time>
      </trkpt>
      <trkpt lat="42.613534000" lon="-2.888830000">
        <ele>517.80</ele>
        <time>2019-03-02T00:35:27Z</time>
      </trkpt>
      <trkpt lat="42.613635000" lon="-2.888916000">
        <ele>520.00</ele>
        <time>2019-03-02T00:35:35Z</time>
      </trkpt>
      <trkpt lat="42.613734000" lon="-2.889001000">
        <ele>522.00</ele>
        <time>2019-03-02T00:35:43Z</time>
      </trkpt>
      <trkpt lat="42.613832000" lon="-2.889045000">
        <ele>524.20</ele>
        <time>2019-03-02T00:35:50Z</time>
      </trkpt>
      <trkpt lat="42.613928000" lon="-2.889088000">
        <ele>525.60</ele>
        <time>2019-03-02T00:35:57Z</time>
      </trkpt>
      <trkpt lat="42.614010000" lon="-2.889145000">
        <ele>526.60</ele>
        <time>2019-03-02T00:36:03Z</time>
      </trkpt>
      <trkpt lat="42.614098000" lon="-2.889217000">
        <ele>527.80</ele>
        <time>2019-03-02T00:36:10Z</time>
      </trkpt>
      <trkpt lat="42.614200000" lon="-2.889304000">
        <ele>530.00</ele>
        <time>2019-03-02T00:36:18Z</time>
      </trkpt>
      <trkpt lat="42.614351000" lon="-2.889355000">
        <ele>532.20</ele>
        <time>2019-03-02T00:36:27Z</time>
      </trkpt>
      <trkpt lat="42.614442000" lon="-2.889406000">
        <ele>533.20</ele>
        <time>2019-03-02T00:36:32Z</time>
      </trkpt>
      <trkpt lat="42.614571000" lon="-2.889493000">
        <ele>534.20</ele>
        <time>2019-03-02T00:36:39Z</time>
      </trkpt>
      <trkpt lat="42.614689000" lon="-2.889551000">
        <ele>535.20</ele>
        <time>2019-03-02T00:36:45Z</time>
      </trkpt>
      <trkpt lat="42.614836000" lon="-2.889608000">
        <ele>536.40</ele>
        <time>2019-03-02T00:36:53Z</time>
      </trkpt>
      <trkpt lat="42.614964000" lon="-2.889674000">
        <ele>537.40</ele>
        <time>2019-03-02T00:36:59Z</time>
      </trkpt>
      <trkpt lat="42.615250000" lon="-2.889914000">
        <ele>538.40</ele>
        <time>2019-03-02T00:37:11Z</time>
      </trkpt>
      <trkpt lat="42.615502000" lon="-2.890076000">
        <ele>539.60</ele>
        <time>2019-03-02T00:37:24Z</time>
      </trkpt>
      <trkpt lat="42.615672000" lon="-2.890314000">
        <ele>541.60</ele>
        <time>2019-03-02T00:37:37Z</time>
      </trkpt>
      <trkpt lat="42.615788000" lon="-2.890490000">
        <ele>543.80</ele>
        <time>2019-03-02T00:37:47Z</time>
      </trkpt>
      <trkpt lat="42.615933000" lon="-2.890646000">
        <ele>545.80</ele>
        <time>2019-03-02T00:37:57Z</time>
      </trkpt>
      <trkpt lat="42.616024000" lon="-2.890716000">
        <ele>546.80</ele>
        <time>2019-03-02T00:38:02Z</time>
      </trkpt>
      <trkpt lat="42.616125000" lon="-2.890812000">
        <ele>548.00</ele>
        <time>2019-03-02T00:38:08Z</time>
      </trkpt>
      <trkpt lat="42.616242000" lon="-2.890926000">
        <ele>549.00</ele>
        <time>2019-03-02T00:38:15Z</time>
      </trkpt>
      <trkpt lat="42.616342000" lon="-2.891058000">
        <ele>550.00</ele>
        <time>2019-03-02T00:38:23Z</time>
      </trkpt>
      <trkpt lat="42.616436000" lon="-2.891158000">
        <ele>551.00</ele>
        <time>2019-03-02T00:38:29Z</time>
      </trkpt>
      <trkpt lat="42.616548000" lon="-2.891253000">
        <ele>552.00</ele>
        <time>2019-03-02T00:38:36Z</time>
      </trkpt>
      <trkpt lat="42.616669000" lon="-2.891339000">
        <ele>554.60</ele>
        <time>2019-03-02T00:38:44Z</time>
      </trkpt>
      <trkpt lat="42.616755000" lon="-2.891389000">
        <ele>555.60</ele>
        <time>2019-03-02T00:38:49Z</time>
      </trkpt>
      <trkpt lat="42.616899000" lon="-2.891433000">
        <ele>556.80</ele>
        <time>2019-03-02T00:38:57Z</time>
      </trkpt>
      <trkpt lat="42.617041000" lon="-2.891511000">
        <ele>558.00</ele>
        <time>2019-03-02T00:39:05Z</time>
      </trkpt>
      <trkpt lat="42.617144000" lon="-2.891579000">
        <ele>559.00</ele>
        <time>2019-03-02T00:39:11Z</time>
      </trkpt>
      <trkpt lat="42.617235000" lon="-2.891668000">
        <ele>560.00</ele>
        <time>2019-03-02T00:39:18Z</time>
      </trkpt>
      <trkpt lat="42.617377000" lon="-2.891803000">
        <ele>561.00</ele>
        <time>2019-03-02T00:39:27Z</time>
      </trkpt>
      <trkpt lat="42.617497000" lon="-2.891881000">
        <ele>562.20</ele>
        <time>2019-03-02T00:39:34Z</time>
      </trkpt>
      <trkpt lat="42.617588000" lon="-2.891932000">
        <ele>563.00</ele>
        <time>2019-03-02T00:39:39Z</time>
      </trkpt>
      <trkpt lat="42.617711000" lon="-2.892007000">
        <ele>565.20</ele>
        <time>2019-03-02T00:39:46Z</time>
      </trkpt>
      <trkpt lat="42.617814000" lon="-2.892068000">
        <ele>566.20</ele>
        <time>2019-03-02T00:39:52Z</time>
      </trkpt>
      <trkpt lat="42.617903000" lon="-2.892110000">
        <ele>567.40</ele>
        <time>2019-03-02T00:39:57Z</time>
      </trkpt>
      <trkpt lat="42.617998000" lon="-2.892188000">
        <ele>568.60</ele>
        <time>2019-03-02T00:40:02Z</time>
      </trkpt>
      <trkpt lat="42.618199000" lon="-2.892350000">
        <ele>569.40</ele>
        <time>2019-03-02T00:40:14Z</time>
      </trkpt>
      <trkpt lat="42.618351000" lon="-2.892497000">
        <ele>570.60</ele>
        <time>2019-03-02T00:40:27Z</time>
      </trkpt>
      <trkpt lat="42.618506000" lon="-2.892593000">
        <ele>574.60</ele>
        <time>2019-03-02T00:40:45Z</time>
      </trkpt>
      <trkpt lat="42.618595000" lon="-2.892663000">
        <ele>578.00</ele>
        <time>2019-03-02T00:40:54Z</time>
      </trkpt>
      <trkpt lat="42.618859000" lon="-2.892874000">
        <ele>580.80</ele>
        <time>2019-03-02T00:41:29Z</time>
      </trkpt>
      <trkpt lat="42.618950000" lon="-2.892802000">
        <ele>582.20</ele>
        <time>2019-03-02T00:41:36Z</time>
      </trkpt>
      <trkpt lat="42.619068000" lon="-2.892718000">
        <ele>586.40</ele>
        <time>2019-03-02T00:41:55Z</time>
      </trkpt>
      <trkpt lat="42.619180000" lon="-2.892659000">
        <ele>591.00</ele>
        <time>2019-03-02T00:42:10Z</time>
      </trkpt>
      <trkpt lat="42.619222000" lon="-2.892547000">
        <ele>592.20</ele>
        <time>2019-03-02T00:42:15Z</time>
      </trkpt>
      <trkpt lat="42.619452000" lon="-2.892474000">
        <ele>592.60</ele>
        <time>2019-03-02T00:42:27Z</time>
      </trkpt>
      <trkpt lat="42.619760000" lon="-2.892596000">
        <ele>593.20</ele>
        <time>2019-03-02T00:42:41Z</time>
      </trkpt>
      <trkpt lat="42.619912000" lon="-2.892754000">
        <ele>594.40</ele>
        <time>2019-03-02T00:42:51Z</time>
      </trkpt>
      <trkpt lat="42.620092000" lon="-2.892992000">
        <ele>596.80</ele>
        <time>2019-03-02T00:43:00Z</time>
      </trkpt>
      <trkpt lat="42.620339000" lon="-2.893652000">
        <ele>595.80</ele>
        <time>2019-03-02T00:43:14Z</time>
      </trkpt>
      <trkpt lat="42.620428000" lon="-2.893986000">
        <ele>597.80</ele>
        <time>2019-03-02T00:43:27Z</time>
      </trkpt>
      <trkpt lat="42.620404000" lon="-2.894132000">
        <ele>600.60</ele>
        <time>2019-03-02T00:43:33Z</time>
      </trkpt>
      <trkpt lat="42.620302000" lon="-2.894421000">
        <ele>602.80</ele>
        <time>2019-03-02T00:43:47Z</time>
      </trkpt>
      <trkpt lat="42.620261000" lon="-2.894604000">
        <ele>604.80</ele>
        <time>2019-03-02T00:43:56Z</time>
      </trkpt>
      <trkpt lat="42.620246000" lon="-2.894778000">
        <ele>607.00</ele>
        <time>2019-03-02T00:44:04Z</time>
      </trkpt>
      <trkpt lat="42.620176000" lon="-2.895082000">
        <ele>609.20</ele>
        <time>2019-03-02T00:44:15Z</time>
      </trkpt>
      <trkpt lat="42.620070000" lon="-2.895383000">
        <ele>610.20</ele>
        <time>2019-03-02T00:44:27Z</time>
      </trkpt>
      <trkpt lat="42.620026000" lon="-2.895505000">
        <ele>611.40</ele>
        <time>2019-03-02T00:44:33Z</time>
      </trkpt>
      <trkpt lat="42.620043000" lon="-2.895661000">
        <ele>613.80</ele>
        <time>2019-03-02T00:44:41Z</time>
      </trkpt>
      <trkpt lat="42.620088000" lon="-2.895824000">
        <ele>616.00</ele>
        <time>2019-03-02T00:44:50Z</time>
      </trkpt>
      <trkpt lat="42.620139000" lon="-2.895993000">
        <ele>618.20</ele>
        <time>2019-03-02T00:45:00Z</time>
      </trkpt>
      <trkpt lat="42.620147000" lon="-2.896158000">
        <ele>620.20</ele>
        <time>2019-03-02T00:45:09Z</time>
      </trkpt>
      <trkpt lat="42.620180000" lon="-2.896304000">
        <ele>622.20</ele>
        <time>2019-03-02T00:45:18Z</time>
      </trkpt>
      <trkpt lat="42.620223000" lon="-2.896450000">
        <ele>624.40</ele>
        <time>2019-03-02T00:45:27Z</time>
      </trkpt>
      <trkpt lat="42.620271000" lon="-2.896640000">
        <ele>626.60</ele>
        <time>2019-03-02T00:45:37Z</time>
      </trkpt>
      <trkpt lat="42.620367000" lon="-2.896724000">
        <ele>629.00</ele>
        <time>2019-03-02T00:45:46Z</time>
      </trkpt>
      <trkpt lat="42.620444000" lon="-2.896812000">
        <ele>631.00</ele>
        <time>2019-03-02T00:45:53Z</time>
      </trkpt>
      <trkpt lat="42.620507000" lon="-2.897052000">
        <ele>633.20</ele>
        <time>2019-03-02T00:46:05Z</time>
      </trkpt>
      <trkpt lat="42.620545000" lon="-2.897208000">
        <ele>634.40</ele>
        <time>2019-03-02T00:46:12Z</time>
      </trkpt>
      <trkpt lat="42.620586000" lon="-2.897339000">
        <ele>635.40</ele>
        <time>2019-03-02T00:46:18Z</time>
      </trkpt>
      <trkpt lat="42.620640000" lon="-2.897497000">
        <ele>636.60</ele>
        <time>2019-03-02T00:46:25Z</time>
      </trkpt>
      <trkpt lat="42.620685000" lon="-2.897625000">
        <ele>637.60</ele>
        <time>2019-03-02T00:46:31Z</time>
      </trkpt>
      <trkpt lat="42.620733000" lon="-2.897758000">
        <ele>638.80</ele>
        <time>2019-03-02T00:46:37Z</time>
      </trkpt>
      <trkpt lat="42.620776000" lon="-2.897892000">
        <ele>639.80</ele>
        <time>2019-03-02T00:46:43Z</time>
      </trkpt>
      <trkpt lat="42.620849000" lon="-2.898132000">
        <ele>641.80</ele>
        <time>2019-03-02T00:46:53Z</time>
      </trkpt>
      <trkpt lat="42.620893000" lon="-2.898266000">
        <ele>643.00</ele>
        <time>2019-03-02T00:46:59Z</time>
      </trkpt>
      <trkpt lat="42.620938000" lon="-2.898379000">
        <ele>644.20</ele>
        <time>2019-03-02T00:47:04Z</time>
      </trkpt>
      <trkpt lat="42.621005000" lon="-2.898544000">
        <ele>645.20</ele>
        <time>2019-03-02T00:47:11Z</time>
      </trkpt>
      <trkpt lat="42.621060000" lon="-2.898692000">
        <ele>646.20</ele>
        <time>2019-03-02T00:47:17Z</time>
      </trkpt>
      <trkpt lat="42.621139000" lon="-2.898911000">
        <ele>647.20</ele>
        <time>2019-03-02T00:47:26Z</time>
      </trkpt>
      <trkpt lat="42.621200000" lon="-2.899147000">
        <ele>648.40</ele>
        <time>2019-03-02T00:47:36Z</time>
      </trkpt>
      <trkpt lat="42.621253000" lon="-2.899271000">
        <ele>649.20</ele>
        <time>2019-03-02T00:47:42Z</time>
      </trkpt>
      <trkpt lat="42.621358000" lon="-2.899510000">
        <ele>651.80</ele>
        <time>2019-03-02T00:47:54Z</time>
      </trkpt>
      <trkpt lat="42.621423000" lon="-2.899693000">
        <ele>653.80</ele>
        <time>2019-03-02T00:48:04Z</time>
      </trkpt>
      <trkpt lat="42.621478000" lon="-2.899858000">
        <ele>656.00</ele>
        <time>2019-03-02T00:48:13Z</time>
      </trkpt>
      <trkpt lat="42.621513000" lon="-2.900028000">
        <ele>658.20</ele>
        <time>2019-03-02T00:48:22Z</time>
      </trkpt>
      <trkpt lat="42.621592000" lon="-2.900188000">
        <ele>660.40</ele>
        <time>2019-03-02T00:48:31Z</time>
      </trkpt>
      <trkpt lat="42.621659000" lon="-2.900309000">
        <ele>662.00</ele>
        <time>2019-03-02T00:48:38Z</time>
      </trkpt>
      <trkpt lat="42.621758000" lon="-2.900416000">
        <ele>663.80</ele>
        <time>2019-03-02T00:48:46Z</time>
      </trkpt>
      <trkpt lat="42.621820000" lon="-2.900528000">
        <ele>664.80</ele>
        <time>2019-03-02T00:48:53Z</time>
      </trkpt>
      <trkpt lat="42.621900000" lon="-2.900690000">
        <ele>667.00</ele>
        <time>2019-03-02T00:49:03Z</time>
      </trkpt>
      <trkpt lat="42.621943000" lon="-2.900860000">
        <ele>669.20</ele>
        <time>2019-03-02T00:49:12Z</time>
      </trkpt>
      <trkpt lat="42.622027000" lon="-2.901035000">
        <ele>671.40</ele>
        <time>2019-03-02T00:49:22Z</time>
      </trkpt>
      <trkpt lat="42.622202000" lon="-2.901271000">
        <ele>673.60</ele>
        <time>2019-03-02T00:49:35Z</time>
      </trkpt>
      <trkpt lat="42.622333000" lon="-2.901467000">
        <ele>675.00</ele>
        <time>2019-03-02T00:49:44Z</time>
      </trkpt>
      <trkpt lat="42.622438000" lon="-2.901606000">
        <ele>675.80</ele>
        <time>2019-03-02T00:49:50Z</time>
      </trkpt>
      <trkpt lat="42.622620000" lon="-2.901881000">
        <ele>676.80</ele>
        <time>2019-03-02T00:50:01Z</time>
      </trkpt>
      <trkpt lat="42.622812000" lon="-2.902253000">
        <ele>677.80</ele>
        <time>2019-03-02T00:50:17Z</time>
      </trkpt>
      <trkpt lat="42.623085000" lon="-2.902714000">
        <ele>678.60</ele>
        <time>2019-03-02T00:50:39Z</time>
      </trkpt>
      <trkpt lat="42.623242000" lon="-2.902698000">
        <ele>678.80</ele>
        <time>2019-03-02T00:50:44Z</time>
      </trkpt>
      <trkpt lat="42.623332000" lon="-2.902792000">
        <ele>679.80</ele>
        <time>2019-03-02T00:50:50Z</time>
      </trkpt>
      <trkpt lat="42.623417000" lon="-2.902844000">
        <ele>681.00</ele>
        <time>2019-03-02T00:50:56Z</time>
      </trkpt>
      <trkpt lat="42.623547000" lon="-2.902919000">
        <ele>683.20</ele>
        <time>2019-03-02T00:51:04Z</time>
      </trkpt>
      <trkpt lat="42.623708000" lon="-2.903021000">
        <ele>684.40</ele>
        <time>2019-03-02T00:51:12Z</time>
      </trkpt>
      <trkpt lat="42.623849000" lon="-2.903083000">
        <ele>685.40</ele>
        <time>2019-03-02T00:51:20Z</time>
      </trkpt>
      <trkpt lat="42.624004000" lon="-2.903177000">
        <ele>687.60</ele>
        <time>2019-03-02T00:51:30Z</time>
      </trkpt>
      <trkpt lat="42.624144000" lon="-2.903289000">
        <ele>688.60</ele>
        <time>2019-03-02T00:51:39Z</time>
      </trkpt>
      <trkpt lat="42.624284000" lon="-2.903371000">
        <ele>689.80</ele>
        <time>2019-03-02T00:51:47Z</time>
      </trkpt>
      <trkpt lat="42.624447000" lon="-2.903469000">
        <ele>690.80</ele>
        <time>2019-03-02T00:51:57Z</time>
      </trkpt>
      <trkpt lat="42.624503000" lon="-2.903644000">
        <ele>691.80</ele>
        <time>2019-03-02T00:52:06Z</time>
      </trkpt>
      <trkpt lat="42.624580000" lon="-2.903874000">
        <ele>694.00</ele>
        <time>2019-03-02T00:52:18Z</time>
      </trkpt>
      <trkpt lat="42.624652000" lon="-2.904013000">
        <ele>695.00</ele>
        <time>2019-03-02T00:52:27Z</time>
      </trkpt>
      <trkpt lat="42.624718000" lon="-2.904185000">
        <ele>696.40</ele>
        <time>2019-03-02T00:53:23Z</time>
      </trkpt>
      <trkpt lat="42.624770000" lon="-2.904357000">
        <ele>697.00</ele>
        <time>2019-03-02T00:53:30Z</time>
      </trkpt>
      <trkpt lat="42.624865000" lon="-2.904504000">
        <ele>699.00</ele>
        <time>2019-03-02T00:53:37Z</time>
      </trkpt>
      <trkpt lat="42.624890000" lon="-2.904689000">
        <ele>700.60</ele>
        <time>2019-03-02T00:53:45Z</time>
      </trkpt>
      <trkpt lat="42.624855000" lon="-2.904835000">
        <ele>703.00</ele>
        <time>2019-03-02T00:53:53Z</time>
      </trkpt>
      <trkpt lat="42.624868000" lon="-2.904974000">
        <ele>705.40</ele>
        <time>2019-03-02T00:54:00Z</time>
      </trkpt>
      <trkpt lat="42.624956000" lon="-2.905081000">
        <ele>707.80</ele>
        <time>2019-03-02T00:54:08Z</time>
      </trkpt>
      <trkpt lat="42.625093000" lon="-2.905218000">
        <ele>708.80</ele>
        <time>2019-03-02T00:54:20Z</time>
      </trkpt>
      <trkpt lat="42.625171000" lon="-2.905329000">
        <ele>711.20</ele>
        <time>2019-03-02T00:54:29Z</time>
      </trkpt>
      <trkpt lat="42.625245000" lon="-2.905419000">
        <ele>713.40</ele>
        <time>2019-03-02T00:54:37Z</time>
      </trkpt>
      <trkpt lat="42.625339000" lon="-2.905523000">
        <ele>715.80</ele>
        <time>2019-03-02T00:54:46Z</time>
      </trkpt>
      <trkpt lat="42.625432000" lon="-2.905641000">
        <ele>718.20</ele>
        <time>2019-03-02T00:54:56Z</time>
      </trkpt>
      <trkpt lat="42.625547000" lon="-2.905776000">
        <ele>721.60</ele>
        <time>2019-03-02T00:55:07Z</time>
      </trkpt>
      <trkpt lat="42.625760000" lon="-2.905820000">
        <ele>724.00</ele>
        <time>2019-03-02T00:55:19Z</time>
      </trkpt>
      <trkpt lat="42.625936000" lon="-2.905877000">
        <ele>724.40</ele>
        <time>2019-03-02T00:55:24Z</time>
      </trkpt>
      <trkpt lat="42.626442000" lon="-2.906431000">
        <ele>723.60</ele>
        <time>2019-03-02T00:55:38Z</time>
      </trkpt>
      <trkpt lat="42.626516000" lon="-2.906513000">
        <ele>723.40</ele>
        <time>2019-03-02T00:55:40Z</time>
      </trkpt>
      <trkpt lat="42.626687000" lon="-2.906598000">
        <ele>723.40</ele>
        <time>2019-03-02T00:55:44Z</time>
      </trkpt>
      <trkpt lat="42.627175000" lon="-2.906645000">
        <ele>723.40</ele>
        <time>2019-03-02T00:55:58Z</time>
      </trkpt>
      <trkpt lat="42.627345000" lon="-2.906864000">
        <ele>723.40</ele>
        <time>2019-03-02T00:56:03Z</time>
      </trkpt>
      <trkpt lat="42.627399000" lon="-2.907008000">
        <ele>723.00</ele>
        <time>2019-03-02T00:56:05Z</time>
      </trkpt>
      <trkpt lat="42.627447000" lon="-2.907169000">
        <ele>722.40</ele>
        <time>2019-03-02T00:56:07Z</time>
      </trkpt>
      <trkpt lat="42.627515000" lon="-2.907331000">
        <ele>720.40</ele>
        <time>2019-03-02T00:56:09Z</time>
      </trkpt>
      <trkpt lat="42.627569000" lon="-2.907483000">
        <ele>718.20</ele>
        <time>2019-03-02T00:56:11Z</time>
      </trkpt>
      <trkpt lat="42.627609000" lon="-2.907604000">
        <ele>715.40</ele>
        <time>2019-03-02T00:56:13Z</time>
      </trkpt>
      <trkpt lat="42.627662000" lon="-2.907755000">
        <ele>713.20</ele>
        <time>2019-03-02T00:56:17Z</time>
      </trkpt>
      <trkpt lat="42.627777000" lon="-2.908023000">
        <ele>714.40</ele>
        <time>2019-03-02T00:56:26Z</time>
      </trkpt>
      <trkpt lat="42.627825000" lon="-2.908130000">
        <ele>715.40</ele>
        <time>2019-03-02T00:56:30Z</time>
      </trkpt>
      <trkpt lat="42.627909000" lon="-2.908303000">
        <ele>716.60</ele>
        <time>2019-03-02T00:56:37Z</time>
      </trkpt>
      <trkpt lat="42.627989000" lon="-2.908442000">
        <ele>717.80</ele>
        <time>2019-03-02T00:56:43Z</time>
      </trkpt>
      <trkpt lat="42.628048000" lon="-2.908568000">
        <ele>719.00</ele>
        <time>2019-03-02T00:56:48Z</time>
      </trkpt>
      <trkpt lat="42.628114000" lon="-2.908687000">
        <ele>720.00</ele>
        <time>2019-03-02T00:56:53Z</time>
      </trkpt>
      <trkpt lat="42.628222000" lon="-2.908950000">
        <ele>721.00</ele>
        <time>2019-03-02T00:57:02Z</time>
      </trkpt>
      <trkpt lat="42.628266000" lon="-2.909160000">
        <ele>722.20</ele>
        <time>2019-03-02T00:57:08Z</time>
      </trkpt>
      <trkpt lat="42.628346000" lon="-2.909928000">
        <ele>723.00</ele>
        <time>2019-03-02T00:57:24Z</time>
      </trkpt>
      <trkpt lat="42.628361000" lon="-2.910232000">
        <ele>723.40</ele>
        <time>2019-03-02T00:57:31Z</time>
      </trkpt>
      <trkpt lat="42.628412000" lon="-2.910519000">
        <ele>724.60</ele>
        <time>2019-03-02T00:57:40Z</time>
      </trkpt>
      <trkpt lat="42.628456000" lon="-2.910682000">
        <ele>725.80</ele>
        <time>2019-03-02T00:57:46Z</time>
      </trkpt>
      <trkpt lat="42.628496000" lon="-2.910804000">
        <ele>727.00</ele>
        <time>2019-03-02T00:57:51Z</time>
      </trkpt>
      <trkpt lat="42.628578000" lon="-2.911000000">
        <ele>729.20</ele>
        <time>2019-03-02T00:57:59Z</time>
      </trkpt>
      <trkpt lat="42.628644000" lon="-2.911159000">
        <ele>730.40</ele>
        <time>2019-03-02T00:58:05Z</time>
      </trkpt>
      <trkpt lat="42.628706000" lon="-2.911333000">
        <ele>731.40</ele>
        <time>2019-03-02T00:58:11Z</time>
      </trkpt>
      <trkpt lat="42.628789000" lon="-2.911557000">
        <ele>732.40</ele>
        <time>2019-03-02T00:58:19Z</time>
      </trkpt>
      <trkpt lat="42.628854000" lon="-2.911734000">
        <ele>733.60</ele>
        <time>2019-03-02T00:58:26Z</time>
      </trkpt>
      <trkpt lat="42.628894000" lon="-2.911847000">
        <ele>734.60</ele>
        <time>2019-03-02T00:58:31Z</time>
      </trkpt>
      <trkpt lat="42.628970000" lon="-2.912126000">
        <ele>735.60</ele>
        <time>2019-03-02T00:58:41Z</time>
      </trkpt>
      <trkpt lat="42.629038000" lon="-2.912369000">
        <ele>736.80</ele>
        <time>2019-03-02T00:58:50Z</time>
      </trkpt>
      <trkpt lat="42.628832000" lon="-2.912589000">
        <ele>738.80</ele>
        <time>2019-03-02T00:59:31Z</time>
      </trkpt>
      <trkpt lat="42.628767000" lon="-2.912475000">
        <ele>738.80</ele>
        <time>2019-03-02T00:59:39Z</time>
      </trkpt>
      <trkpt lat="42.628701000" lon="-2.912377000">
        <ele>738.00</ele>
        <time>2019-03-02T00:59:44Z</time>
      </trkpt>
      <trkpt lat="42.628633000" lon="-2.912270000">
        <ele>736.80</ele>
        <time>2019-03-02T00:59:49Z</time>
      </trkpt>
      <trkpt lat="42.628498000" lon="-2.912216000">
        <ele>735.80</ele>
        <time>2019-03-02T00:59:54Z</time>
      </trkpt>
      <trkpt lat="42.627946000" lon="-2.912001000">
        <ele>735.00</ele>
        <time>2019-03-02T01:00:16Z</time>
      </trkpt>
      <trkpt lat="42.627743000" lon="-2.911692000">
        <ele>734.80</ele>
        <time>2019-03-02T01:00:31Z</time>
      </trkpt>
      <trkpt lat="42.627550000" lon="-2.911265000">
        <ele>733.80</ele>
        <time>2019-03-02T01:00:44Z</time>
      </trkpt>
      <trkpt lat="42.627488000" lon="-2.911092000">
        <ele>732.60</ele>
        <time>2019-03-02T01:00:48Z</time>
      </trkpt>
      <trkpt lat="42.627388000" lon="-2.910917000">
        <ele>731.20</ele>
        <time>2019-03-02T01:00:54Z</time>
      </trkpt>
      <trkpt lat="42.627358000" lon="-2.910720000">
        <ele>730.00</ele>
        <time>2019-03-02T01:00:59Z</time>
      </trkpt>
      <trkpt lat="42.627305000" lon="-2.910552000">
        <ele>729.00</ele>
        <time>2019-03-02T01:01:03Z</time>
      </trkpt>
      <trkpt lat="42.627265000" lon="-2.910367000">
        <ele>727.80</ele>
        <time>2019-03-02T01:01:07Z</time>
      </trkpt>
      <trkpt lat="42.627191000" lon="-2.910248000">
        <ele>726.60</ele>
        <time>2019-03-02T01:01:10Z</time>
      </trkpt>
      <trkpt lat="42.627123000" lon="-2.910060000">
        <ele>725.40</ele>
        <time>2019-03-02T01:01:14Z</time>
      </trkpt>
      <trkpt lat="42.627026000" lon="-2.909718000">
        <ele>724.80</ele>
        <time>2019-03-02T01:01:20Z</time>
      </trkpt>
      <trkpt lat="42.626888000" lon="-2.909504000">
        <ele>724.40</ele>
        <time>2019-03-02T01:01:24Z</time>
      </trkpt>
      <trkpt lat="42.626423000" lon="-2.909084000">
        <ele>724.40</ele>
        <time>2019-03-02T01:01:43Z</time>
      </trkpt>
      <trkpt lat="42.626319000" lon="-2.909047000">
        <ele>724.20</ele>
        <time>2019-03-02T01:01:46Z</time>
      </trkpt>
      <trkpt lat="42.626192000" lon="-2.908897000">
        <ele>722.20</ele>
        <time>2019-03-02T01:01:51Z</time>
      </trkpt>
      <trkpt lat="42.626104000" lon="-2.908833000">
        <ele>720.80</ele>
        <time>2019-03-02T01:01:54Z</time>
      </trkpt>
      <trkpt lat="42.625967000" lon="-2.908789000">
        <ele>719.80</ele>
        <time>2019-03-02T01:01:59Z</time>
      </trkpt>
      <trkpt lat="42.625875000" lon="-2.908753000">
        <ele>718.40</ele>
        <time>2019-03-02T01:02:03Z</time>
      </trkpt>
      <trkpt lat="42.625792000" lon="-2.908810000">
        <ele>716.20</ele>
        <time>2019-03-02T01:02:10Z</time>
      </trkpt>
      <trkpt lat="42.625810000" lon="-2.909340000">
        <ele>717.20</ele>
        <time>2019-03-02T01:02:29Z</time>
      </trkpt>
      <trkpt lat="42.625648000" lon="-2.909464000">
        <ele>718.40</ele>
        <time>2019-03-02T01:02:38Z</time>
      </trkpt>
      <trkpt lat="42.625528000" lon="-2.909479000">
        <ele>719.60</ele>
        <time>2019-03-02T01:02:45Z</time>
      </trkpt>
      <trkpt lat="42.625381000" lon="-2.909451000">
        <ele>720.60</ele>
        <time>2019-03-02T01:02:53Z</time>
      </trkpt>
      <trkpt lat="42.625287000" lon="-2.909439000">
        <ele>721.80</ele>
        <time>2019-03-02T01:02:59Z</time>
      </trkpt>
      <trkpt lat="42.625165000" lon="-2.909415000">
        <ele>723.00</ele>
        <time>2019-03-02T01:03:06Z</time>
      </trkpt>
      <trkpt lat="42.625050000" lon="-2.909328000">
        <ele>724.00</ele>
        <time>2019-03-02T01:03:13Z</time>
      </trkpt>
      <trkpt lat="42.624958000" lon="-2.909292000">
        <ele>724.80</ele>
        <time>2019-03-02T01:03:19Z</time>
      </trkpt>
      <trkpt lat="42.624825000" lon="-2.909238000">
        <ele>726.20</ele>
        <time>2019-03-02T01:03:26Z</time>
      </trkpt>
      <trkpt lat="42.624731000" lon="-2.909189000">
        <ele>727.40</ele>
        <time>2019-03-02T01:03:30Z</time>
      </trkpt>
      <trkpt lat="42.624645000" lon="-2.909138000">
        <ele>728.60</ele>
        <time>2019-03-02T01:03:35Z</time>
      </trkpt>
      <trkpt lat="42.624526000" lon="-2.909094000">
        <ele>729.60</ele>
        <time>2019-03-02T01:03:41Z</time>
      </trkpt>
      <trkpt lat="42.624421000" lon="-2.909102000">
        <ele>730.40</ele>
        <time>2019-03-02T01:03:46Z</time>
      </trkpt>
      <trkpt lat="42.624362000" lon="-2.909229000">
        <ele>731.80</ele>
        <time>2019-03-02T01:03:55Z</time>
      </trkpt>
      <trkpt lat="42.624322000" lon="-2.909421000">
        <ele>732.60</ele>
        <time>2019-03-02T01:04:04Z</time>
      </trkpt>
      <trkpt lat="42.624007000" lon="-2.910072000">
        <ele>732.00</ele>
        <time>2019-03-02T01:04:20Z</time>
      </trkpt>
      <trkpt lat="42.623958000" lon="-2.910268000">
        <ele>729.60</ele>
        <time>2019-03-02T01:04:24Z</time>
      </trkpt>
      <trkpt lat="42.623858000" lon="-2.910525000">
        <ele>727.60</ele>
        <time>2019-03-02T01:04:29Z</time>
      </trkpt>
      <trkpt lat="42.623732000" lon="-2.910657000">
        <ele>726.00</ele>
        <time>2019-03-02T01:04:33Z</time>
      </trkpt>
      <trkpt lat="42.623631000" lon="-2.910760000">
        <ele>723.00</ele>
        <time>2019-03-02T01:04:36Z</time>
      </trkpt>
      <trkpt lat="42.623536000" lon="-2.910783000">
        <ele>721.40</ele>
        <time>2019-03-02T01:04:38Z</time>
      </trkpt>
      <trkpt lat="42.623421000" lon="-2.910846000">
        <ele>718.00</ele>
        <time>2019-03-02T01:04:41Z</time>
      </trkpt>
      <trkpt lat="42.623380000" lon="-2.911002000">
        <ele>715.40</ele>
        <time>2019-03-02T01:04:45Z</time>
      </trkpt>
      <trkpt lat="42.623380000" lon="-2.911187000">
        <ele>712.20</ele>
        <time>2019-03-02T01:04:49Z</time>
      </trkpt>
      <trkpt lat="42.623389000" lon="-2.911328000">
        <ele>709.60</ele>
        <time>2019-03-02T01:04:54Z</time>
      </trkpt>
      <trkpt lat="42.623400000" lon="-2.911456000">
        <ele>707.80</ele>
        <time>2019-03-02T01:05:00Z</time>
      </trkpt>
      <trkpt lat="42.623442000" lon="-2.911645000">
        <ele>706.60</ele>
        <time>2019-03-02T01:05:08Z</time>
      </trkpt>
      <trkpt lat="42.623554000" lon="-2.911977000">
        <ele>705.20</ele>
        <time>2019-03-02T01:05:20Z</time>
      </trkpt>
      <trkpt lat="42.623644000" lon="-2.912144000">
        <ele>704.00</ele>
        <time>2019-03-02T01:05:26Z</time>
      </trkpt>
      <trkpt lat="42.623719000" lon="-2.912246000">
        <ele>702.80</ele>
        <time>2019-03-02T01:05:29Z</time>
      </trkpt>
      <trkpt lat="42.623834000" lon="-2.912454000">
        <ele>702.20</ele>
        <time>2019-03-02T01:05:33Z</time>
      </trkpt>
      <trkpt lat="42.623861000" lon="-2.912577000">
        <ele>699.60</ele>
        <time>2019-03-02T01:05:48Z</time>
      </trkpt>
      <trkpt lat="42.624071000" lon="-2.912948000">
        <ele>699.00</ele>
        <time>2019-03-02T01:05:57Z</time>
      </trkpt>
      <trkpt lat="42.624174000" lon="-2.913114000">
        <ele>697.80</ele>
        <time>2019-03-02T01:06:00Z</time>
      </trkpt>
      <trkpt lat="42.624255000" lon="-2.913302000">
        <ele>696.60</ele>
        <time>2019-03-02T01:06:03Z</time>
      </trkpt>
      <trkpt lat="42.624425000" lon="-2.913634000">
        <ele>694.00</ele>
        <time>2019-03-02T01:06:13Z</time>
      </trkpt>
      <trkpt lat="42.624603000" lon="-2.914080000">
        <ele>693.00</ele>
        <time>2019-03-02T01:06:20Z</time>
      </trkpt>
      <trkpt lat="42.624722000" lon="-2.914292000">
        <ele>691.60</ele>
        <time>2019-03-02T01:06:23Z</time>
      </trkpt>
      <trkpt lat="42.624795000" lon="-2.914442000">
        <ele>690.00</ele>
        <time>2019-03-02T01:06:25Z</time>
      </trkpt>
      <trkpt lat="42.624870000" lon="-2.914590000">
        <ele>688.80</ele>
        <time>2019-03-02T01:06:27Z</time>
      </trkpt>
      <trkpt lat="42.624973000" lon="-2.914787000">
        <ele>687.80</ele>
        <time>2019-03-02T01:06:30Z</time>
      </trkpt>
      <trkpt lat="42.625113000" lon="-2.915054000">
        <ele>686.40</ele>
        <time>2019-03-02T01:06:34Z</time>
      </trkpt>
      <trkpt lat="42.625340000" lon="-2.915489000">
        <ele>685.40</ele>
        <time>2019-03-02T01:06:40Z</time>
      </trkpt>
      <trkpt lat="42.625423000" lon="-2.915624000">
        <ele>685.20</ele>
        <time>2019-03-02T01:06:42Z</time>
      </trkpt>
      <trkpt lat="42.625656000" lon="-2.915935000">
        <ele>684.20</ele>
        <time>2019-03-02T01:06:47Z</time>
      </trkpt>
      <trkpt lat="42.625840000" lon="-2.916003000">
        <ele>683.40</ele>
        <time>2019-03-02T01:06:51Z</time>
      </trkpt>
      <trkpt lat="42.625995000" lon="-2.916093000">
        <ele>683.00</ele>
        <time>2019-03-02T01:06:54Z</time>
      </trkpt>
      <trkpt lat="42.626282000" lon="-2.916271000">
        <ele>682.40</ele>
        <time>2019-03-02T01:07:00Z</time>
      </trkpt>
      <trkpt lat="42.626408000" lon="-2.916453000">
        <ele>681.80</ele>
        <time>2019-03-02T01:07:03Z</time>
      </trkpt>
      <trkpt lat="42.626539000" lon="-2.916680000">
        <ele>681.00</ele>
        <time>2019-03-02T01:07:06Z</time>
      </trkpt>
      <trkpt lat="42.626624000" lon="-2.916950000">
        <ele>680.00</ele>
        <time>2019-03-02T01:07:09Z</time>
      </trkpt>
      <trkpt lat="42.626654000" lon="-2.917285000">
        <ele>677.60</ele>
        <time>2019-03-02T01:07:12Z</time>
      </trkpt>
      <trkpt lat="42.626672000" lon="-2.917507000">
        <ele>676.20</ele>
        <time>2019-03-02T01:07:14Z</time>
      </trkpt>
      <trkpt lat="42.626722000" lon="-2.917689000">
        <ele>674.00</ele>
        <time>2019-03-02T01:07:16Z</time>
      </trkpt>
      <trkpt lat="42.626793000" lon="-2.917862000">
        <ele>672.40</ele>
        <time>2019-03-02T01:07:18Z</time>
      </trkpt>
      <trkpt lat="42.626864000" lon="-2.918057000">
        <ele>671.40</ele>
        <time>2019-03-02T01:07:20Z</time>
      </trkpt>
      <trkpt lat="42.626951000" lon="-2.918392000">
        <ele>669.80</ele>
        <time>2019-03-02T01:07:23Z</time>
      </trkpt>
      <trkpt lat="42.627084000" lon="-2.918717000">
        <ele>669.00</ele>
        <time>2019-03-02T01:07:26Z</time>
      </trkpt>
      <trkpt lat="42.627221000" lon="-2.918980000">
        <ele>667.20</ele>
        <time>2019-03-02T01:07:29Z</time>
      </trkpt>
      <trkpt lat="42.627306000" lon="-2.919107000">
        <ele>664.40</ele>
        <time>2019-03-02T01:07:31Z</time>
      </trkpt>
      <trkpt lat="42.627405000" lon="-2.919217000">
        <ele>662.80</ele>
        <time>2019-03-02T01:07:33Z</time>
      </trkpt>
      <trkpt lat="42.627516000" lon="-2.919330000">
        <ele>660.60</ele>
        <time>2019-03-02T01:07:35Z</time>
      </trkpt>
      <trkpt lat="42.627613000" lon="-2.919451000">
        <ele>659.40</ele>
        <time>2019-03-02T01:07:37Z</time>
      </trkpt>
      <trkpt lat="42.627687000" lon="-2.919599000">
        <ele>658.40</ele>
        <time>2019-03-02T01:07:39Z</time>
      </trkpt>
      <trkpt lat="42.627816000" lon="-2.919840000">
        <ele>655.40</ele>
        <time>2019-03-02T01:07:42Z</time>
      </trkpt>
      <trkpt lat="42.627924000" lon="-2.919994000">
        <ele>653.80</ele>
        <time>2019-03-02T01:07:44Z</time>
      </trkpt>
      <trkpt lat="42.628058000" lon="-2.920151000">
        <ele>652.00</ele>
        <time>2019-03-02T01:07:46Z</time>
      </trkpt>
      <trkpt lat="42.628150000" lon="-2.920266000">
        <ele>650.20</ele>
        <time>2019-03-02T01:07:48Z</time>
      </trkpt>
      <trkpt lat="42.628256000" lon="-2.920336000">
        <ele>646.20</ele>
        <time>2019-03-02T01:07:52Z</time>
      </trkpt>
      <trkpt lat="42.628367000" lon="-2.920387000">
        <ele>641.40</ele>
        <time>2019-03-02T01:07:56Z</time>
      </trkpt>
      <trkpt lat="42.628455000" lon="-2.920461000">
        <ele>639.40</ele>
        <time>2019-03-02T01:08:00Z</time>
      </trkpt>
      <trkpt lat="42.628597000" lon="-2.920871000">
        <ele>640.80</ele>
        <time>2019-03-02T01:08:23Z</time>
      </trkpt>
      <trkpt lat="42.628585000" lon="-2.920996000">
        <ele>644.80</ele>
        <time>2019-03-02T01:08:37Z</time>
      </trkpt>
      <trkpt lat="42.628534000" lon="-2.921105000">
        <ele>648.20</ele>
        <time>2019-03-02T01:08:46Z</time>
      </trkpt>
      <trkpt lat="42.628537000" lon="-2.921300000">
        <ele>649.00</ele>
        <time>2019-03-02T01:08:51Z</time>
      </trkpt>
      <trkpt lat="42.628576000" lon="-2.921582000">
        <ele>649.00</ele>
        <time>2019-03-02T01:08:56Z</time>
      </trkpt>
      <trkpt lat="42.628496000" lon="-2.921811000">
        <ele>649.00</ele>
        <time>2019-03-02T01:09:09Z</time>
      </trkpt>
      <trkpt lat="42.628351000" lon="-2.921952000">
        <ele>651.20</ele>
        <time>2019-03-02T01:11:31Z</time>
      </trkpt>
      <trkpt lat="42.628252000" lon="-2.922036000">
        <ele>652.00</ele>
        <time>2019-03-02T01:11:37Z</time>
      </trkpt>
      <trkpt lat="42.627889000" lon="-2.922404000">
        <ele>653.40</ele>
        <time>2019-03-02T01:11:52Z</time>
      </trkpt>
      <trkpt lat="42.627783000" lon="-2.922598000">
        <ele>654.40</ele>
        <time>2019-03-02T01:12:00Z</time>
      </trkpt>
      <trkpt lat="42.627692000" lon="-2.922716000">
        <ele>655.60</ele>
        <time>2019-03-02T01:12:06Z</time>
      </trkpt>
      <trkpt lat="42.627623000" lon="-2.922800000">
        <ele>656.40</ele>
        <time>2019-03-02T01:12:11Z</time>
      </trkpt>
      <trkpt lat="42.627506000" lon="-2.922902000">
        <ele>658.60</ele>
        <time>2019-03-02T01:12:19Z</time>
      </trkpt>
      <trkpt lat="42.627374000" lon="-2.923008000">
        <ele>661.20</ele>
        <time>2019-03-02T01:12:26Z</time>
      </trkpt>
      <trkpt lat="42.627225000" lon="-2.923138000">
        <ele>662.40</ele>
        <time>2019-03-02T01:12:34Z</time>
      </trkpt>
      <trkpt lat="42.627098000" lon="-2.923267000">
        <ele>663.60</ele>
        <time>2019-03-02T01:12:42Z</time>
      </trkpt>
      <trkpt lat="42.627005000" lon="-2.923341000">
        <ele>664.80</ele>
        <time>2019-03-02T01:12:49Z</time>
      </trkpt>
      <trkpt lat="42.626904000" lon="-2.923421000">
        <ele>667.00</ele>
        <time>2019-03-02T01:12:57Z</time>
      </trkpt>
      <trkpt lat="42.626813000" lon="-2.923507000">
        <ele>669.40</ele>
        <time>2019-03-02T01:13:05Z</time>
      </trkpt>
      <trkpt lat="42.626699000" lon="-2.923620000">
        <ele>671.60</ele>
        <time>2019-03-02T01:13:15Z</time>
      </trkpt>
      <trkpt lat="42.626620000" lon="-2.923705000">
        <ele>674.20</ele>
        <time>2019-03-02T01:13:22Z</time>
      </trkpt>
      <trkpt lat="42.626515000" lon="-2.923815000">
        <ele>676.60</ele>
        <time>2019-03-02T01:13:31Z</time>
      </trkpt>
      <trkpt lat="42.626400000" lon="-2.923947000">
        <ele>679.00</ele>
        <time>2019-03-02T01:13:41Z</time>
      </trkpt>
      <trkpt lat="42.626291000" lon="-2.924008000">
        <ele>681.20</ele>
        <time>2019-03-02T01:13:48Z</time>
      </trkpt>
      <trkpt lat="42.625795000" lon="-2.924351000">
        <ele>682.00</ele>
        <time>2019-03-02T01:14:08Z</time>
      </trkpt>
      <trkpt lat="42.625654000" lon="-2.924474000">
        <ele>683.40</ele>
        <time>2019-03-02T01:14:15Z</time>
      </trkpt>
      <trkpt lat="42.625571000" lon="-2.924544000">
        <ele>684.60</ele>
        <time>2019-03-02T01:14:19Z</time>
      </trkpt>
      <trkpt lat="42.625416000" lon="-2.924671000">
        <ele>685.80</ele>
        <time>2019-03-02T01:14:25Z</time>
      </trkpt>
      <trkpt lat="42.625180000" lon="-2.924871000">
        <ele>686.00</ele>
        <time>2019-03-02T01:14:31Z</time>
      </trkpt>
      <trkpt lat="42.624828000" lon="-2.925310000">
        <ele>687.40</ele>
        <time>2019-03-02T01:14:46Z</time>
      </trkpt>
      <trkpt lat="42.624746000" lon="-2.925421000">
        <ele>689.00</ele>
        <time>2019-03-02T01:14:51Z</time>
      </trkpt>
      <trkpt lat="42.624854000" lon="-2.925561000">
        <ele>690.80</ele>
        <time>2019-03-02T01:15:00Z</time>
      </trkpt>
      <trkpt lat="42.624944000" lon="-2.925557000">
        <ele>692.00</ele>
        <time>2019-03-02T01:15:05Z</time>
      </trkpt>
      <trkpt lat="42.625115000" lon="-2.925527000">
        <ele>694.20</ele>
        <time>2019-03-02T01:15:13Z</time>
      </trkpt>
      <trkpt lat="42.625208000" lon="-2.925549000">
        <ele>695.20</ele>
        <time>2019-03-02T01:15:17Z</time>
      </trkpt>
      <trkpt lat="42.625466000" lon="-2.925582000">
        <ele>696.20</ele>
        <time>2019-03-02T01:15:28Z</time>
      </trkpt>
      <trkpt lat="42.625559000" lon="-2.925588000">
        <ele>697.40</ele>
        <time>2019-03-02T01:15:32Z</time>
      </trkpt>
      <trkpt lat="42.625672000" lon="-2.925601000">
        <ele>698.60</ele>
        <time>2019-03-02T01:15:37Z</time>
      </trkpt>
      <trkpt lat="42.625836000" lon="-2.925567000">
        <ele>699.60</ele>
        <time>2019-03-02T01:15:44Z</time>
      </trkpt>
      <trkpt lat="42.626240000" lon="-2.925521000">
        <ele>700.60</ele>
        <time>2019-03-02T01:15:59Z</time>
      </trkpt>
      <trkpt lat="42.626404000" lon="-2.925426000">
        <ele>701.80</ele>
        <time>2019-03-02T01:16:07Z</time>
      </trkpt>
      <trkpt lat="42.626494000" lon="-2.925403000">
        <ele>703.00</ele>
        <time>2019-03-02T01:16:11Z</time>
      </trkpt>
      <trkpt lat="42.626610000" lon="-2.925418000">
        <ele>704.20</ele>
        <time>2019-03-02T01:16:16Z</time>
      </trkpt>
      <trkpt lat="42.626797000" lon="-2.925446000">
        <ele>705.40</ele>
        <time>2019-03-02T01:16:24Z</time>
      </trkpt>
      <trkpt lat="42.627146000" lon="-2.925339000">
        <ele>706.00</ele>
        <time>2019-03-02T01:16:35Z</time>
      </trkpt>
      <trkpt lat="42.627312000" lon="-2.925310000">
        <ele>706.00</ele>
        <time>2019-03-02T01:16:40Z</time>
      </trkpt>
      <trkpt lat="42.627432000" lon="-2.925358000">
        <ele>706.40</ele>
        <time>2019-03-02T01:16:45Z</time>
      </trkpt>
      <trkpt lat="42.627609000" lon="-2.925413000">
        <ele>708.60</ele>
        <time>2019-03-02T01:16:52Z</time>
      </trkpt>
      <trkpt lat="42.627800000" lon="-2.925399000">
        <ele>709.60</ele>
        <time>2019-03-02T01:16:59Z</time>
      </trkpt>
      <trkpt lat="42.627965000" lon="-2.925419000">
        <ele>710.60</ele>
        <time>2019-03-02T01:17:06Z</time>
      </trkpt>
      <trkpt lat="42.628078000" lon="-2.925457000">
        <ele>711.80</ele>
        <time>2019-03-02T01:17:11Z</time>
      </trkpt>
      <trkpt lat="42.628232000" lon="-2.925498000">
        <ele>712.80</ele>
        <time>2019-03-02T01:17:18Z</time>
      </trkpt>
      <trkpt lat="42.628338000" lon="-2.925531000">
        <ele>714.00</ele>
        <time>2019-03-02T01:17:24Z</time>
      </trkpt>
      <trkpt lat="42.628474000" lon="-2.925641000">
        <ele>716.20</ele>
        <time>2019-03-02T01:17:32Z</time>
      </trkpt>
      <trkpt lat="42.628560000" lon="-2.925781000">
        <ele>717.20</ele>
        <time>2019-03-02T01:17:38Z</time>
      </trkpt>
      <trkpt lat="42.628644000" lon="-2.925946000">
        <ele>718.40</ele>
        <time>2019-03-02T01:17:44Z</time>
      </trkpt>
      <trkpt lat="42.628785000" lon="-2.926160000">
        <ele>718.40</ele>
        <time>2019-03-02T01:17:50Z</time>
      </trkpt>
      <trkpt lat="42.628898000" lon="-2.926610000">
        <ele>717.60</ele>
        <time>2019-03-02T01:17:58Z</time>
      </trkpt>
      <trkpt lat="42.628883000" lon="-2.926864000">
        <ele>716.00</ele>
        <time>2019-03-02T01:18:02Z</time>
      </trkpt>
      <trkpt lat="42.628982000" lon="-2.927257000">
        <ele>715.00</ele>
        <time>2019-03-02T01:18:13Z</time>
      </trkpt>
      <trkpt lat="42.629181000" lon="-2.927622000">
        <ele>714.40</ele>
        <time>2019-03-02T01:18:19Z</time>
      </trkpt>
      <trkpt lat="42.629272000" lon="-2.927759000">
        <ele>713.80</ele>
        <time>2019-03-02T01:18:21Z</time>
      </trkpt>
      <trkpt lat="42.629381000" lon="-2.927974000">
        <ele>712.60</ele>
        <time>2019-03-02T01:18:24Z</time>
      </trkpt>
      <trkpt lat="42.629445000" lon="-2.928086000">
        <ele>709.80</ele>
        <time>2019-03-02T01:18:28Z</time>
      </trkpt>
      <trkpt lat="42.629461000" lon="-2.928123000">
        <ele>709.40</ele>
        <time>2019-03-02T01:18:38Z</time>
      </trkpt>
      <trkpt lat="42.629462000" lon="-2.928122000">
        <ele>789.80</ele>
        <time>2019-03-02T00:10:15Z</time>
      </trkpt>
      <trkpt lat="42.629633000" lon="-2.928359000">
        <ele>789.80</ele>
        <time>2019-03-02T00:13:22Z</time>
      </trkpt>
      <trkpt lat="42.630016000" lon="-2.928891000">
        <ele>788.80</ele>
        <time>2019-03-02T00:13:35Z</time>
      </trkpt>
      <trkpt lat="42.630072000" lon="-2.929004000">
        <ele>788.40</ele>
        <time>2019-03-02T00:13:37Z</time>
      </trkpt>
      <trkpt lat="42.630208000" lon="-2.929310000">
        <ele>787.20</ele>
        <time>2019-03-02T00:13:42Z</time>
      </trkpt>
      <trkpt lat="42.630292000" lon="-2.929493000">
        <ele>785.60</ele>
        <time>2019-03-02T00:13:45Z</time>
      </trkpt>
      <trkpt lat="42.630437000" lon="-2.929833000">
        <ele>784.60</ele>
        <time>2019-03-02T00:13:51Z</time>
      </trkpt>
      <trkpt lat="42.630686000" lon="-2.930485000">
        <ele>784.60</ele>
        <time>2019-03-02T00:14:06Z</time>
      </trkpt>
      <trkpt lat="42.630734000" lon="-2.931221000">
        <ele>784.00</ele>
        <time>2019-03-02T00:14:22Z</time>
      </trkpt>
      <trkpt lat="42.630743000" lon="-2.931386000">
        <ele>783.20</ele>
        <time>2019-03-02T00:14:24Z</time>
      </trkpt>
      <trkpt lat="42.630742000" lon="-2.931555000">
        <ele>781.80</ele>
        <time>2019-03-02T00:14:26Z</time>
      </trkpt>
      <trkpt lat="42.630753000" lon="-2.931783000">
        <ele>780.00</ele>
        <time>2019-03-02T00:14:29Z</time>
      </trkpt>
      <trkpt lat="42.630765000" lon="-2.931909000">
        <ele>777.00</ele>
        <time>2019-03-02T00:14:32Z</time>
      </trkpt>
      <trkpt lat="42.630953000" lon="-2.931971000">
        <ele>773.00</ele>
        <time>2019-03-02T00:14:56Z</time>
      </trkpt>
      <trkpt lat="42.631093000" lon="-2.931947000">
        <ele>772.60</ele>
        <time>2019-03-02T00:15:00Z</time>
      </trkpt>
      <trkpt lat="42.631204000" lon="-2.931845000">
        <ele>770.80</ele>
        <time>2019-03-02T00:15:03Z</time>
      </trkpt>
      <trkpt lat="42.631298000" lon="-2.931829000">
        <ele>769.00</ele>
        <time>2019-03-02T00:15:05Z</time>
      </trkpt>
      <trkpt lat="42.631399000" lon="-2.931837000">
        <ele>767.20</ele>
        <time>2019-03-02T00:15:07Z</time>
      </trkpt>
      <trkpt lat="42.631543000" lon="-2.931859000">
        <ele>764.60</ele>
        <time>2019-03-02T00:15:10Z</time>
      </trkpt>
      <trkpt lat="42.631653000" lon="-2.931967000">
        <ele>760.80</ele>
        <time>2019-03-02T00:15:13Z</time>
      </trkpt>
      <trkpt lat="42.631742000" lon="-2.931988000">
        <ele>757.40</ele>
        <time>2019-03-02T00:15:17Z</time>
      </trkpt>
      <trkpt lat="42.631760000" lon="-2.931854000">
        <ele>754.80</ele>
        <time>2019-03-02T00:15:21Z</time>
      </trkpt>
      <trkpt lat="42.631754000" lon="-2.931668000">
        <ele>752.00</ele>
        <time>2019-03-02T00:15:26Z</time>
      </trkpt>
      <trkpt lat="42.631795000" lon="-2.931426000">
        <ele>750.80</ele>
        <time>2019-03-02T00:15:33Z</time>
      </trkpt>
      <trkpt lat="42.631827000" lon="-2.931178000">
        <ele>749.60</ele>
        <time>2019-03-02T00:15:40Z</time>
      </trkpt>
      <trkpt lat="42.631977000" lon="-2.930767000">
        <ele>748.40</ele>
        <time>2019-03-02T00:15:53Z</time>
      </trkpt>
      <trkpt lat="42.632057000" lon="-2.930685000">
        <ele>747.00</ele>
        <time>2019-03-02T00:15:56Z</time>
      </trkpt>
      <trkpt lat="42.632117000" lon="-2.930445000">
        <ele>746.00</ele>
        <time>2019-03-02T00:16:01Z</time>
      </trkpt>
      <trkpt lat="42.632195000" lon="-2.930382000">
        <ele>744.60</ele>
        <time>2019-03-02T00:16:04Z</time>
      </trkpt>
      <trkpt lat="42.632290000" lon="-2.930319000">
        <ele>741.80</ele>
        <time>2019-03-02T00:16:08Z</time>
      </trkpt>
      <trkpt lat="42.632415000" lon="-2.930279000">
        <ele>740.40</ele>
        <time>2019-03-02T00:16:13Z</time>
      </trkpt>
      <trkpt lat="42.632468000" lon="-2.930154000">
        <ele>739.00</ele>
        <time>2019-03-02T00:16:16Z</time>
      </trkpt>
      <trkpt lat="42.632570000" lon="-2.930021000">
        <ele>737.40</ele>
        <time>2019-03-02T00:16:20Z</time>
      </trkpt>
      <trkpt lat="42.632649000" lon="-2.929927000">
        <ele>736.00</ele>
        <time>2019-03-02T00:16:23Z</time>
      </trkpt>
      <trkpt lat="42.632743000" lon="-2.929813000">
        <ele>734.80</ele>
        <time>2019-03-02T00:16:27Z</time>
      </trkpt>
      <trkpt lat="42.632883000" lon="-2.929746000">
        <ele>733.80</ele>
        <time>2019-03-02T00:16:31Z</time>
      </trkpt>
      <trkpt lat="42.633068000" lon="-2.929788000">
        <ele>732.60</ele>
        <time>2019-03-02T00:16:37Z</time>
      </trkpt>
      <trkpt lat="42.633199000" lon="-2.929765000">
        <ele>731.60</ele>
        <time>2019-03-02T00:16:42Z</time>
      </trkpt>
      <trkpt lat="42.633400000" lon="-2.929784000">
        <ele>728.60</ele>
        <time>2019-03-02T00:16:48Z</time>
      </trkpt>
      <trkpt lat="42.633495000" lon="-2.929780000">
        <ele>727.60</ele>
        <time>2019-03-02T00:16:51Z</time>
      </trkpt>
      <trkpt lat="42.633668000" lon="-2.929706000">
        <ele>726.40</ele>
        <time>2019-03-02T00:16:56Z</time>
      </trkpt>
      <trkpt lat="42.633806000" lon="-2.929640000">
        <ele>724.60</ele>
        <time>2019-03-02T00:17:00Z</time>
      </trkpt>
      <trkpt lat="42.633895000" lon="-2.929501000">
        <ele>723.00</ele>
        <time>2019-03-02T00:17:04Z</time>
      </trkpt>
      <trkpt lat="42.633931000" lon="-2.929318000">
        <ele>721.40</ele>
        <time>2019-03-02T00:17:08Z</time>
      </trkpt>
      <trkpt lat="42.633993000" lon="-2.929189000">
        <ele>720.40</ele>
        <time>2019-03-02T00:17:12Z</time>
      </trkpt>
      <trkpt lat="42.634047000" lon="-2.929058000">
        <ele>719.40</ele>
        <time>2019-03-02T00:17:16Z</time>
      </trkpt>
      <trkpt lat="42.634114000" lon="-2.928867000">
        <ele>717.80</ele>
        <time>2019-03-02T00:17:21Z</time>
      </trkpt>
      <trkpt lat="42.634160000" lon="-2.928680000">
        <ele>712.00</ele>
        <time>2019-03-02T00:17:27Z</time>
      </trkpt>
      <trkpt lat="42.634185000" lon="-2.928535000">
        <ele>710.60</ele>
        <time>2019-03-02T00:17:31Z</time>
      </trkpt>
      <trkpt lat="42.634223000" lon="-2.928391000">
        <ele>703.80</ele>
        <time>2019-03-02T00:17:51Z</time>
      </trkpt>
      <trkpt lat="42.634287000" lon="-2.928285000">
        <ele>700.20</ele>
        <time>2019-03-02T00:18:15Z</time>
      </trkpt>
      <trkpt lat="42.634351000" lon="-2.928034000">
        <ele>697.40</ele>
        <time>2019-03-02T00:18:28Z</time>
      </trkpt>
      <trkpt lat="42.634397000" lon="-2.927843000">
        <ele>694.00</ele>
        <time>2019-03-02T00:18:36Z</time>
      </trkpt>
      <trkpt lat="42.634518000" lon="-2.927675000">
        <ele>693.00</ele>
        <time>2019-03-02T00:18:41Z</time>
      </trkpt>
      <trkpt lat="42.634585000" lon="-2.927545000">
        <ele>689.80</ele>
        <time>2019-03-02T00:18:47Z</time>
      </trkpt>
      <trkpt lat="42.634712000" lon="-2.927441000">
        <ele>684.80</ele>
        <time>2019-03-02T00:18:58Z</time>
      </trkpt>
      <trkpt lat="42.634821000" lon="-2.927278000">
        <ele>683.80</ele>
        <time>2019-03-02T00:19:04Z</time>
      </trkpt>
      <trkpt lat="42.634886000" lon="-2.927186000">
        <ele>680.40</ele>
        <time>2019-03-02T00:19:08Z</time>
      </trkpt>
      <trkpt lat="42.634934000" lon="-2.927046000">
        <ele>676.00</ele>
        <time>2019-03-02T00:19:14Z</time>
      </trkpt>
      <trkpt lat="42.634983000" lon="-2.926951000">
        <ele>670.00</ele>
        <time>2019-03-02T00:19:22Z</time>
      </trkpt>
      <trkpt lat="42.635068000" lon="-2.926902000">
        <ele>669.60</ele>
        <time>2019-03-02T00:19:27Z</time>
      </trkpt>
      <trkpt lat="42.635174000" lon="-2.926800000">
        <ele>664.20</ele>
        <time>2019-03-02T00:19:39Z</time>
      </trkpt>
      <trkpt lat="42.635230000" lon="-2.926699000">
        <ele>663.60</ele>
        <time>2019-03-02T00:19:45Z</time>
      </trkpt>
      <trkpt lat="42.635303000" lon="-2.926627000">
        <ele>661.40</ele>
        <time>2019-03-02T00:19:50Z</time>
      </trkpt>
      <trkpt lat="42.635384000" lon="-2.926425000">
        <ele>659.00</ele>
        <time>2019-03-02T00:19:57Z</time>
      </trkpt>
      <trkpt lat="42.635409000" lon="-2.926306000">
        <ele>657.80</ele>
        <time>2019-03-02T00:19:59Z</time>
      </trkpt>
      <trkpt lat="42.635451000" lon="-2.926143000">
        <ele>654.80</ele>
        <time>2019-03-02T00:20:04Z</time>
      </trkpt>
      <trkpt lat="42.635513000" lon="-2.926030000">
        <ele>651.40</ele>
        <time>2019-03-02T00:20:10Z</time>
      </trkpt>
      <trkpt lat="42.635496000" lon="-2.925873000">
        <ele>647.60</ele>
        <time>2019-03-02T00:20:17Z</time>
      </trkpt>
      <trkpt lat="42.635538000" lon="-2.925725000">
        <ele>643.60</ele>
        <time>2019-03-02T00:20:25Z</time>
      </trkpt>
      <trkpt lat="42.635569000" lon="-2.925591000">
        <ele>637.20</ele>
        <time>2019-03-02T00:20:40Z</time>
      </trkpt>
      <trkpt lat="42.635606000" lon="-2.925362000">
        <ele>636.20</ele>
        <time>2019-03-02T00:20:47Z</time>
      </trkpt>
      <trkpt lat="42.635655000" lon="-2.925210000">
        <ele>633.60</ele>
        <time>2019-03-02T00:20:52Z</time>
      </trkpt>
      <trkpt lat="42.635742000" lon="-2.925077000">
        <ele>631.20</ele>
        <time>2019-03-02T00:20:57Z</time>
      </trkpt>
      <trkpt lat="42.635800000" lon="-2.924890000">
        <ele>629.60</ele>
        <time>2019-03-02T00:21:01Z</time>
      </trkpt>
      <trkpt lat="42.635895000" lon="-2.924677000">
        <ele>627.20</ele>
        <time>2019-03-02T00:21:07Z</time>
      </trkpt>
      <trkpt lat="42.636024000" lon="-2.924621000">
        <ele>622.80</ele>
        <time>2019-03-02T00:21:15Z</time>
      </trkpt>
      <trkpt lat="42.636140000" lon="-2.924423000">
        <ele>622.80</ele>
        <time>2019-03-02T00:21:21Z</time>
      </trkpt>
      <trkpt lat="42.636295000" lon="-2.924031000">
        <ele>622.20</ele>
        <time>2019-03-02T00:21:27Z</time>
      </trkpt>
      <trkpt lat="42.636368000" lon="-2.923914000">
        <ele>621.00</ele>
        <time>2019-03-02T00:21:29Z</time>
      </trkpt>
      <trkpt lat="42.636458000" lon="-2.923790000">
        <ele>618.80</ele>
        <time>2019-03-02T00:21:31Z</time>
      </trkpt>
      <trkpt lat="42.636647000" lon="-2.923603000">
        <ele>617.20</ele>
        <time>2019-03-02T00:21:34Z</time>
      </trkpt>
      <trkpt lat="42.636795000" lon="-2.923514000">
        <ele>616.00</ele>
        <time>2019-03-02T00:21:36Z</time>
      </trkpt>
      <trkpt lat="42.636944000" lon="-2.923458000">
        <ele>615.00</ele>
        <time>2019-03-02T00:21:38Z</time>
      </trkpt>
      <trkpt lat="42.637087000" lon="-2.923378000">
        <ele>613.40</ele>
        <time>2019-03-02T00:21:40Z</time>
      </trkpt>
      <trkpt lat="42.637194000" lon="-2.923239000">
        <ele>611.00</ele>
        <time>2019-03-02T00:21:42Z</time>
      </trkpt>
      <trkpt lat="42.637281000" lon="-2.923027000">
        <ele>608.60</ele>
        <time>2019-03-02T00:21:45Z</time>
      </trkpt>
      <trkpt lat="42.637433000" lon="-2.922906000">
        <ele>606.60</ele>
        <time>2019-03-02T00:21:49Z</time>
      </trkpt>
      <trkpt lat="42.637528000" lon="-2.922882000">
        <ele>605.60</ele>
        <time>2019-03-02T00:21:51Z</time>
      </trkpt>
      <trkpt lat="42.637682000" lon="-2.922662000">
        <ele>604.40</ele>
        <time>2019-03-02T00:21:55Z</time>
      </trkpt>
      <trkpt lat="42.637745000" lon="-2.922494000">
        <ele>603.60</ele>
        <time>2019-03-02T00:21:57Z</time>
      </trkpt>
      <trkpt lat="42.637841000" lon="-2.922232000">
        <ele>601.80</ele>
        <time>2019-03-02T00:22:00Z</time>
      </trkpt>
      <trkpt lat="42.637935000" lon="-2.921939000">
        <ele>600.40</ele>
        <time>2019-03-02T00:22:03Z</time>
      </trkpt>
      <trkpt lat="42.637998000" lon="-2.921749000">
        <ele>599.00</ele>
        <time>2019-03-02T00:22:05Z</time>
      </trkpt>
      <trkpt lat="42.638092000" lon="-2.921469000">
        <ele>597.60</ele>
        <time>2019-03-02T00:22:08Z</time>
      </trkpt>
      <trkpt lat="42.638138000" lon="-2.921279000">
        <ele>596.00</ele>
        <time>2019-03-02T00:22:10Z</time>
      </trkpt>
      <trkpt lat="42.638231000" lon="-2.921026000">
        <ele>594.60</ele>
        <time>2019-03-02T00:22:13Z</time>
      </trkpt>
      <trkpt lat="42.638369000" lon="-2.920841000">
        <ele>593.20</ele>
        <time>2019-03-02T00:22:16Z</time>
      </trkpt>
      <trkpt lat="42.638478000" lon="-2.920753000">
        <ele>591.80</ele>
        <time>2019-03-02T00:22:18Z</time>
      </trkpt>
      <trkpt lat="42.638738000" lon="-2.920355000">
        <ele>590.60</ele>
        <time>2019-03-02T00:22:24Z</time>
      </trkpt>
      <trkpt lat="42.638836000" lon="-2.920214000">
        <ele>589.40</ele>
        <time>2019-03-02T00:22:26Z</time>
      </trkpt>
      <trkpt lat="42.638951000" lon="-2.920108000">
        <ele>588.40</ele>
        <time>2019-03-02T00:22:28Z</time>
      </trkpt>
      <trkpt lat="42.639122000" lon="-2.919965000">
        <ele>586.40</ele>
        <time>2019-03-02T00:22:34Z</time>
      </trkpt>
      <trkpt lat="42.639185000" lon="-2.919856000">
        <ele>586.20</ele>
        <time>2019-03-02T00:22:39Z</time>
      </trkpt>
      <trkpt lat="42.639206000" lon="-2.919734000">
        <ele>586.20</ele>
        <time>2019-03-02T00:22:41Z</time>
      </trkpt>
      <trkpt lat="42.639375000" lon="-2.919372000">
        <ele>584.40</ele>
        <time>2019-03-02T00:22:49Z</time>
      </trkpt>
      <trkpt lat="42.639497000" lon="-2.919213000">
        <ele>581.80</ele>
        <time>2019-03-02T00:22:59Z</time>
      </trkpt>
      <trkpt lat="42.639612000" lon="-2.919037000">
        <ele>581.00</ele>
        <time>2019-03-02T00:23:08Z</time>
      </trkpt>
      <trkpt lat="42.639946000" lon="-2.918960000">
        <ele>579.60</ele>
        <time>2019-03-02T00:23:18Z</time>
      </trkpt>
      <trkpt lat="42.640062000" lon="-2.918927000">
        <ele>578.40</ele>
        <time>2019-03-02T00:23:21Z</time>
      </trkpt>
      <trkpt lat="42.640225000" lon="-2.918702000">
        <ele>577.00</ele>
        <time>2019-03-02T00:23:26Z</time>
      </trkpt>
      <trkpt lat="42.640341000" lon="-2.918558000">
        <ele>575.80</ele>
        <time>2019-03-02T00:23:29Z</time>
      </trkpt>
      <trkpt lat="42.640440000" lon="-2.918412000">
        <ele>574.60</ele>
        <time>2019-03-02T00:23:32Z</time>
      </trkpt>
      <trkpt lat="42.640558000" lon="-2.918284000">
        <ele>573.40</ele>
        <time>2019-03-02T00:23:36Z</time>
      </trkpt>
      <trkpt lat="42.640722000" lon="-2.918222000">
        <ele>572.60</ele>
        <time>2019-03-02T00:23:43Z</time>
      </trkpt>
      <trkpt lat="42.640843000" lon="-2.918181000">
        <ele>571.20</ele>
        <time>2019-03-02T00:23:49Z</time>
      </trkpt>
      <trkpt lat="42.640968000" lon="-2.918170000">
        <ele>570.60</ele>
        <time>2019-03-02T00:23:55Z</time>
      </trkpt>
      <trkpt lat="42.641105000" lon="-2.918126000">
        <ele>569.60</ele>
        <time>2019-03-02T00:24:00Z</time>
      </trkpt>
      <trkpt lat="42.641221000" lon="-2.918079000">
        <ele>568.60</ele>
        <time>2019-03-02T00:24:04Z</time>
      </trkpt>
      <trkpt lat="42.641334000" lon="-2.917964000">
        <ele>567.60</ele>
        <time>2019-03-02T00:24:09Z</time>
      </trkpt>
      <trkpt lat="42.641376000" lon="-2.917839000">
        <ele>567.00</ele>
        <time>2019-03-02T00:24:14Z</time>
      </trkpt>
      <trkpt lat="42.641424000" lon="-2.917716000">
        <ele>567.00</ele>
        <time>2019-03-02T00:24:17Z</time>
      </trkpt>
      <trkpt lat="42.641581000" lon="-2.917670000">
        <ele>566.40</ele>
        <time>2019-03-02T00:24:23Z</time>
      </trkpt>
      <trkpt lat="42.641719000" lon="-2.917740000">
        <ele>566.00</ele>
        <time>2019-03-02T00:24:28Z</time>
      </trkpt>
      <trkpt lat="42.641850000" lon="-2.917778000">
        <ele>564.80</ele>
        <time>2019-03-02T00:24:34Z</time>
      </trkpt>
      <trkpt lat="42.641968000" lon="-2.917786000">
        <ele>562.80</ele>
        <time>2019-03-02T00:24:41Z</time>
      </trkpt>
      <trkpt lat="42.642060000" lon="-2.917773000">
        <ele>561.80</ele>
        <time>2019-03-02T00:24:46Z</time>
      </trkpt>
      <trkpt lat="42.642162000" lon="-2.917730000">
        <ele>560.20</ele>
        <time>2019-03-02T00:24:51Z</time>
      </trkpt>
      <trkpt lat="42.642260000" lon="-2.917681000">
        <ele>559.00</ele>
        <time>2019-03-02T00:24:55Z</time>
      </trkpt>
      <trkpt lat="42.642396000" lon="-2.917561000">
        <ele>557.60</ele>
        <time>2019-03-02T00:25:00Z</time>
      </trkpt>
      <trkpt lat="42.642478000" lon="-2.917457000">
        <ele>557.00</ele>
        <time>2019-03-02T00:25:04Z</time>
      </trkpt>
      <trkpt lat="42.642553000" lon="-2.917366000">
        <ele>556.40</ele>
        <time>2019-03-02T00:25:07Z</time>
      </trkpt>
      <trkpt lat="42.642613000" lon="-2.917257000">
        <ele>555.40</ele>
        <time>2019-03-02T00:25:11Z</time>
      </trkpt>
      <trkpt lat="42.642790000" lon="-2.917099000">
        <ele>555.00</ele>
        <time>2019-03-02T00:25:19Z</time>
      </trkpt>
      <trkpt lat="42.643039000" lon="-2.916972000">
        <ele>554.40</ele>
        <time>2019-03-02T00:25:27Z</time>
      </trkpt>
      <trkpt lat="42.643184000" lon="-2.916679000">
        <ele>553.20</ele>
        <time>2019-03-02T00:25:34Z</time>
      </trkpt>
      <trkpt lat="42.643249000" lon="-2.916431000">
        <ele>551.80</ele>
        <time>2019-03-02T00:25:39Z</time>
      </trkpt>
      <trkpt lat="42.643318000" lon="-2.916177000">
        <ele>550.80</ele>
        <time>2019-03-02T00:25:45Z</time>
      </trkpt>
      <trkpt lat="42.643472000" lon="-2.915842000">
        <ele>550.20</ele>
        <time>2019-03-02T00:25:52Z</time>
      </trkpt>
      <trkpt lat="42.643583000" lon="-2.915734000">
        <ele>549.60</ele>
        <time>2019-03-02T00:25:55Z</time>
      </trkpt>
      <trkpt lat="42.643714000" lon="-2.915659000">
        <ele>548.80</ele>
        <time>2019-03-02T00:26:00Z</time>
      </trkpt>
      <trkpt lat="42.643926000" lon="-2.915684000">
        <ele>547.20</ele>
        <time>2019-03-02T00:26:08Z</time>
      </trkpt>
      <trkpt lat="42.644013000" lon="-2.915735000">
        <ele>546.20</ele>
        <time>2019-03-02T00:26:11Z</time>
      </trkpt>
      <trkpt lat="42.644188000" lon="-2.915732000">
        <ele>544.80</ele>
        <time>2019-03-02T00:26:17Z</time>
      </trkpt>
      <trkpt lat="42.644326000" lon="-2.915715000">
        <ele>543.80</ele>
        <time>2019-03-02T00:26:25Z</time>
      </trkpt>
      <trkpt lat="42.644424000" lon="-2.915434000">
        <ele>543.60</ele>
        <time>2019-03-02T00:26:36Z</time>
      </trkpt>
      <trkpt lat="42.644475000" lon="-2.915097000">
        <ele>542.20</ele>
        <time>2019-03-02T00:26:45Z</time>
      </trkpt>
      <trkpt lat="42.644492000" lon="-2.914827000">
        <ele>540.00</ele>
        <time>2019-03-02T00:26:53Z</time>
      </trkpt>
      <trkpt lat="42.644555000" lon="-2.914360000">
        <ele>539.00</ele>
        <time>2019-03-02T00:27:04Z</time>
      </trkpt>
      <trkpt lat="42.644528000" lon="-2.914116000">
        <ele>538.60</ele>
        <time>2019-03-02T00:27:11Z</time>
      </trkpt>
      <trkpt lat="42.644199000" lon="-2.913622000">
        <ele>539.80</ele>
        <time>2019-03-02T00:27:42Z</time>
      </trkpt>
      <trkpt lat="42.644018000" lon="-2.913379000">
        <ele>541.00</ele>
        <time>2019-03-02T00:27:51Z</time>
      </trkpt>
      <trkpt lat="42.643851000" lon="-2.913296000">
        <ele>542.00</ele>
        <time>2019-03-02T00:27:57Z</time>
      </trkpt>
      <trkpt lat="42.643502000" lon="-2.913107000">
        <ele>542.80</ele>
        <time>2019-03-02T00:28:09Z</time>
      </trkpt>
      <trkpt lat="42.643387000" lon="-2.912895000">
        <ele>544.00</ele>
        <time>2019-03-02T00:28:15Z</time>
      </trkpt>
      <trkpt lat="42.643340000" lon="-2.912584000">
        <ele>545.20</ele>
        <time>2019-03-02T00:28:23Z</time>
      </trkpt>
      <trkpt lat="42.643301000" lon="-2.912381000">
        <ele>546.20</ele>
        <time>2019-03-02T00:28:28Z</time>
      </trkpt>
      <trkpt lat="42.643226000" lon="-2.912107000">
        <ele>547.20</ele>
        <time>2019-03-02T00:28:35Z</time>
      </trkpt>
      <trkpt lat="42.643088000" lon="-2.911936000">
        <ele>548.20</ele>
        <time>2019-03-02T00:28:42Z</time>
      </trkpt>
      <trkpt lat="42.642951000" lon="-2.911888000">
        <ele>549.20</ele>
        <time>2019-03-02T00:28:47Z</time>
      </trkpt>
      <trkpt lat="42.642699000" lon="-2.911731000">
        <ele>550.20</ele>
        <time>2019-03-02T00:28:58Z</time>
      </trkpt>
      <trkpt lat="42.642570000" lon="-2.911623000">
        <ele>551.00</ele>
        <time>2019-03-02T00:29:05Z</time>
      </trkpt>
      <trkpt lat="42.642457000" lon="-2.911564000">
        <ele>552.20</ele>
        <time>2019-03-02T00:29:10Z</time>
      </trkpt>
      <trkpt lat="42.642321000" lon="-2.911495000">
        <ele>553.40</ele>
        <time>2019-03-02T00:29:15Z</time>
      </trkpt>
      <trkpt lat="42.642130000" lon="-2.911320000">
        <ele>554.40</ele>
        <time>2019-03-02T00:29:24Z</time>
      </trkpt>
      <trkpt lat="42.642096000" lon="-2.911167000">
        <ele>555.60</ele>
        <time>2019-03-02T00:29:28Z</time>
      </trkpt>
      <trkpt lat="42.642087000" lon="-2.910858000">
        <ele>556.40</ele>
        <time>2019-03-02T00:29:36Z</time>
      </trkpt>
      <trkpt lat="42.642087000" lon="-2.910577000">
        <ele>557.60</ele>
        <time>2019-03-02T00:29:44Z</time>
      </trkpt>
      <trkpt lat="42.642148000" lon="-2.910318000">
        <ele>558.60</ele>
        <time>2019-03-02T00:29:52Z</time>
      </trkpt>
      <trkpt lat="42.642172000" lon="-2.910042000">
        <ele>559.80</ele>
        <time>2019-03-02T00:30:00Z</time>
      </trkpt>
      <trkpt lat="42.642143000" lon="-2.909804000">
        <ele>561.20</ele>
        <time>2019-03-02T00:30:07Z</time>
      </trkpt>
      <trkpt lat="42.642070000" lon="-2.909633000">
        <ele>562.40</ele>
        <time>2019-03-02T00:30:13Z</time>
      </trkpt>
      <trkpt lat="42.641953000" lon="-2.909568000">
        <ele>563.20</ele>
        <time>2019-03-02T00:30:18Z</time>
      </trkpt>
      <trkpt lat="42.641651000" lon="-2.909507000">
        <ele>564.40</ele>
        <time>2019-03-02T00:30:29Z</time>
      </trkpt>
      <trkpt lat="42.641445000" lon="-2.909576000">
        <ele>565.40</ele>
        <time>2019-03-02T00:30:37Z</time>
      </trkpt>
      <trkpt lat="42.641251000" lon="-2.909679000">
        <ele>566.40</ele>
        <time>2019-03-02T00:30:46Z</time>
      </trkpt>
      <trkpt lat="42.641156000" lon="-2.909618000">
        <ele>567.60</ele>
        <time>2019-03-02T00:30:51Z</time>
      </trkpt>
      <trkpt lat="42.641071000" lon="-2.909507000">
        <ele>568.60</ele>
        <time>2019-03-02T00:30:55Z</time>
      </trkpt>
      <trkpt lat="42.640967000" lon="-2.909191000">
        <ele>569.60</ele>
        <time>2019-03-02T00:31:03Z</time>
      </trkpt>
      <trkpt lat="42.640807000" lon="-2.908666000">
        <ele>570.80</ele>
        <time>2019-03-02T00:31:17Z</time>
      </trkpt>
      <trkpt lat="42.640697000" lon="-2.908470000">
        <ele>571.80</ele>
        <time>2019-03-02T00:31:24Z</time>
      </trkpt>
      <trkpt lat="42.640525000" lon="-2.908376000">
        <ele>573.00</ele>
        <time>2019-03-02T00:31:31Z</time>
      </trkpt>
      <trkpt lat="42.640321000" lon="-2.908326000">
        <ele>574.00</ele>
        <time>2019-03-02T00:31:38Z</time>
      </trkpt>
      <trkpt lat="42.640075000" lon="-2.908277000">
        <ele>575.20</ele>
        <time>2019-03-02T00:31:47Z</time>
      </trkpt>
      <trkpt lat="42.639866000" lon="-2.908118000">
        <ele>576.20</ele>
        <time>2019-03-02T00:31:56Z</time>
      </trkpt>
      <trkpt lat="42.639745000" lon="-2.907943000">
        <ele>577.20</ele>
        <time>2019-03-02T00:32:02Z</time>
      </trkpt>
      <trkpt lat="42.639645000" lon="-2.907713000">
        <ele>578.40</ele>
        <time>2019-03-02T00:32:09Z</time>
      </trkpt>
      <trkpt lat="42.639584000" lon="-2.907401000">
        <ele>579.40</ele>
        <time>2019-03-02T00:32:17Z</time>
      </trkpt>
      <trkpt lat="42.639550000" lon="-2.907023000">
        <ele>580.40</ele>
        <time>2019-03-02T00:32:28Z</time>
      </trkpt>
      <trkpt lat="42.639537000" lon="-2.906861000">
        <ele>581.60</ele>
        <time>2019-03-02T00:32:33Z</time>
      </trkpt>
      <trkpt lat="42.639508000" lon="-2.906600000">
        <ele>582.80</ele>
        <time>2019-03-02T00:32:41Z</time>
      </trkpt>
      <trkpt lat="42.639497000" lon="-2.906385000">
        <ele>584.20</ele>
        <time>2019-03-02T00:32:48Z</time>
      </trkpt>
      <trkpt lat="42.639456000" lon="-2.906169000">
        <ele>586.00</ele>
        <time>2019-03-02T00:32:55Z</time>
      </trkpt>
      <trkpt lat="42.639440000" lon="-2.905978000">
        <ele>587.20</ele>
        <time>2019-03-02T00:33:01Z</time>
      </trkpt>
      <trkpt lat="42.639500000" lon="-2.905707000">
        <ele>588.20</ele>
        <time>2019-03-02T00:33:11Z</time>
      </trkpt>
      <trkpt lat="42.639581000" lon="-2.905488000">
        <ele>589.20</ele>
        <time>2019-03-02T00:33:19Z</time>
      </trkpt>
      <trkpt lat="42.639601000" lon="-2.905333000">
        <ele>590.20</ele>
        <time>2019-03-02T00:33:25Z</time>
      </trkpt>
      <trkpt lat="42.639567000" lon="-2.905117000">
        <ele>592.60</ele>
        <time>2019-03-02T00:33:34Z</time>
      </trkpt>
      <trkpt lat="42.639495000" lon="-2.904982000">
        <ele>593.60</ele>
        <time>2019-03-02T00:33:40Z</time>
      </trkpt>
      <trkpt lat="42.639400000" lon="-2.904861000">
        <ele>594.60</ele>
        <time>2019-03-02T00:33:46Z</time>
      </trkpt>
      <trkpt lat="42.639313000" lon="-2.904757000">
        <ele>595.60</ele>
        <time>2019-03-02T00:33:51Z</time>
      </trkpt>
      <trkpt lat="42.639203000" lon="-2.904649000">
        <ele>596.60</ele>
        <time>2019-03-02T00:33:57Z</time>
      </trkpt>
      <trkpt lat="42.638959000" lon="-2.904324000">
        <ele>599.00</ele>
        <time>2019-03-02T00:34:27Z</time>
      </trkpt>
      <trkpt lat="42.638833000" lon="-2.904153000">
        <ele>600.00</ele>
        <time>2019-03-02T00:34:34Z</time>
      </trkpt>
      <trkpt lat="42.638712000" lon="-2.903915000">
        <ele>601.20</ele>
        <time>2019-03-02T00:34:43Z</time>
      </trkpt>
      <trkpt lat="42.638665000" lon="-2.903734000">
        <ele>602.20</ele>
        <time>2019-03-02T00:34:49Z</time>
      </trkpt>
      <trkpt lat="42.638635000" lon="-2.903581000">
        <ele>603.40</ele>
        <time>2019-03-02T00:34:54Z</time>
      </trkpt>
      <trkpt lat="42.638592000" lon="-2.903382000">
        <ele>604.40</ele>
        <time>2019-03-02T00:35:01Z</time>
      </trkpt>
      <trkpt lat="42.638566000" lon="-2.903242000">
        <ele>605.60</ele>
        <time>2019-03-02T00:35:06Z</time>
      </trkpt>
      <trkpt lat="42.638556000" lon="-2.903093000">
        <ele>606.60</ele>
        <time>2019-03-02T00:35:11Z</time>
      </trkpt>
      <trkpt lat="42.638510000" lon="-2.902931000">
        <ele>607.60</ele>
        <time>2019-03-02T00:35:17Z</time>
      </trkpt>
      <trkpt lat="42.638398000" lon="-2.902788000">
        <ele>608.60</ele>
        <time>2019-03-02T00:35:24Z</time>
      </trkpt>
      <trkpt lat="42.638255000" lon="-2.902605000">
        <ele>609.60</ele>
        <time>2019-03-02T00:35:33Z</time>
      </trkpt>
      <trkpt lat="42.638134000" lon="-2.902447000">
        <ele>610.80</ele>
        <time>2019-03-02T00:35:42Z</time>
      </trkpt>
      <trkpt lat="42.638009000" lon="-2.902288000">
        <ele>613.00</ele>
        <time>2019-03-02T00:35:51Z</time>
      </trkpt>
      <trkpt lat="42.637900000" lon="-2.902009000">
        <ele>615.00</ele>
        <time>2019-03-02T00:36:02Z</time>
      </trkpt>
      <trkpt lat="42.637871000" lon="-2.901852000">
        <ele>616.00</ele>
        <time>2019-03-02T00:36:08Z</time>
      </trkpt>
      <trkpt lat="42.637855000" lon="-2.901672000">
        <ele>617.00</ele>
        <time>2019-03-02T00:36:15Z</time>
      </trkpt>
      <trkpt lat="42.637887000" lon="-2.901478000">
        <ele>618.40</ele>
        <time>2019-03-02T00:36:23Z</time>
      </trkpt>
      <trkpt lat="42.637881000" lon="-2.901328000">
        <ele>619.60</ele>
        <time>2019-03-02T00:36:29Z</time>
      </trkpt>
      <trkpt lat="42.637866000" lon="-2.901201000">
        <ele>620.60</ele>
        <time>2019-03-02T00:36:34Z</time>
      </trkpt>
      <trkpt lat="42.637816000" lon="-2.900956000">
        <ele>622.80</ele>
        <time>2019-03-02T00:36:44Z</time>
      </trkpt>
      <trkpt lat="42.637757000" lon="-2.900795000">
        <ele>624.00</ele>
        <time>2019-03-02T00:36:52Z</time>
      </trkpt>
      <trkpt lat="42.637686000" lon="-2.900698000">
        <ele>625.00</ele>
        <time>2019-03-02T00:36:58Z</time>
      </trkpt>
      <trkpt lat="42.637603000" lon="-2.900532000">
        <ele>627.40</ele>
        <time>2019-03-02T00:37:07Z</time>
      </trkpt>
      <trkpt lat="42.637538000" lon="-2.900371000">
        <ele>629.00</ele>
        <time>2019-03-02T00:37:15Z</time>
      </trkpt>
      <trkpt lat="42.637436000" lon="-2.900074000">
        <ele>630.60</ele>
        <time>2019-03-02T00:37:27Z</time>
      </trkpt>
      <trkpt lat="42.637367000" lon="-2.899928000">
        <ele>631.60</ele>
        <time>2019-03-02T00:37:34Z</time>
      </trkpt>
      <trkpt lat="42.637288000" lon="-2.899829000">
        <ele>632.60</ele>
        <time>2019-03-02T00:37:40Z</time>
      </trkpt>
      <trkpt lat="42.637246000" lon="-2.899720000">
        <ele>633.60</ele>
        <time>2019-03-02T00:37:45Z</time>
      </trkpt>
      <trkpt lat="42.637135000" lon="-2.899539000">
        <ele>634.60</ele>
        <time>2019-03-02T00:37:54Z</time>
      </trkpt>
      <trkpt lat="42.637042000" lon="-2.899256000">
        <ele>635.80</ele>
        <time>2019-03-02T00:38:06Z</time>
      </trkpt>
      <trkpt lat="42.637056000" lon="-2.899074000">
        <ele>637.00</ele>
        <time>2019-03-02T00:38:13Z</time>
      </trkpt>
      <trkpt lat="42.636962000" lon="-2.898814000">
        <ele>639.40</ele>
        <time>2019-03-02T00:38:22Z</time>
      </trkpt>
      <trkpt lat="42.636744000" lon="-2.898351000">
        <ele>640.60</ele>
        <time>2019-03-02T00:38:35Z</time>
      </trkpt>
      <trkpt lat="42.636563000" lon="-2.897856000">
        <ele>641.60</ele>
        <time>2019-03-02T00:38:48Z</time>
      </trkpt>
      <trkpt lat="42.636468000" lon="-2.897531000">
        <ele>642.60</ele>
        <time>2019-03-02T00:38:57Z</time>
      </trkpt>
      <trkpt lat="42.636426000" lon="-2.897360000">
        <ele>643.80</ele>
        <time>2019-03-02T00:39:05Z</time>
      </trkpt>
      <trkpt lat="42.636349000" lon="-2.897164000">
        <ele>644.80</ele>
        <time>2019-03-02T00:39:11Z</time>
      </trkpt>
      <trkpt lat="42.636158000" lon="-2.896625000">
        <ele>645.80</ele>
        <time>2019-03-02T00:39:27Z</time>
      </trkpt>
      <trkpt lat="42.636028000" lon="-2.896305000">
        <ele>646.80</ele>
        <time>2019-03-02T00:39:36Z</time>
      </trkpt>
      <trkpt lat="42.635942000" lon="-2.895956000">
        <ele>648.00</ele>
        <time>2019-03-02T00:39:46Z</time>
      </trkpt>
      <trkpt lat="42.635902000" lon="-2.895777000">
        <ele>649.00</ele>
        <time>2019-03-02T00:39:51Z</time>
      </trkpt>
      <trkpt lat="42.635826000" lon="-2.895483000">
        <ele>650.00</ele>
        <time>2019-03-02T00:39:59Z</time>
      </trkpt>
      <trkpt lat="42.635738000" lon="-2.895171000">
        <ele>651.20</ele>
        <time>2019-03-02T00:40:08Z</time>
      </trkpt>
      <trkpt lat="42.635681000" lon="-2.894946000">
        <ele>652.60</ele>
        <time>2019-03-02T00:40:15Z</time>
      </trkpt>
      <trkpt lat="42.635621000" lon="-2.894734000">
        <ele>653.60</ele>
        <time>2019-03-02T00:40:22Z</time>
      </trkpt>
      <trkpt lat="42.635511000" lon="-2.894499000">
        <ele>654.80</ele>
        <time>2019-03-02T00:40:30Z</time>
      </trkpt>
      <trkpt lat="42.635378000" lon="-2.894299000">
        <ele>655.80</ele>
        <time>2019-03-02T00:40:38Z</time>
      </trkpt>
      <trkpt lat="42.635244000" lon="-2.894123000">
        <ele>656.80</ele>
        <time>2019-03-02T00:40:46Z</time>
      </trkpt>
      <trkpt lat="42.635062000" lon="-2.893922000">
        <ele>658.00</ele>
        <time>2019-03-02T00:40:56Z</time>
      </trkpt>
      <trkpt lat="42.634981000" lon="-2.893823000">
        <ele>659.00</ele>
        <time>2019-03-02T00:41:01Z</time>
      </trkpt>
      <trkpt lat="42.634882000" lon="-2.893680000">
        <ele>660.20</ele>
        <time>2019-03-02T00:41:08Z</time>
      </trkpt>
      <trkpt lat="42.634801000" lon="-2.893554000">
        <ele>661.60</ele>
        <time>2019-03-02T00:41:14Z</time>
      </trkpt>
      <trkpt lat="42.634732000" lon="-2.893453000">
        <ele>662.60</ele>
        <time>2019-03-02T00:41:19Z</time>
      </trkpt>
      <trkpt lat="42.634710000" lon="-2.893315000">
        <ele>663.60</ele>
        <time>2019-03-02T00:41:25Z</time>
      </trkpt>
      <trkpt lat="42.634799000" lon="-2.893190000">
        <ele>664.80</ele>
        <time>2019-03-02T00:41:33Z</time>
      </trkpt>
      <trkpt lat="42.634981000" lon="-2.893172000">
        <ele>667.20</ele>
        <time>2019-03-02T00:41:44Z</time>
      </trkpt>
      <trkpt lat="42.635150000" lon="-2.893159000">
        <ele>669.40</ele>
        <time>2019-03-02T00:41:55Z</time>
      </trkpt>
      <trkpt lat="42.635281000" lon="-2.893155000">
        <ele>671.80</ele>
        <time>2019-03-02T00:42:04Z</time>
      </trkpt>
      <trkpt lat="42.635491000" lon="-2.893114000">
        <ele>674.00</ele>
        <time>2019-03-02T00:42:17Z</time>
      </trkpt>
      <trkpt lat="42.635583000" lon="-2.893094000">
        <ele>675.20</ele>
        <time>2019-03-02T00:42:23Z</time>
      </trkpt>
      <trkpt lat="42.635715000" lon="-2.893056000">
        <ele>676.20</ele>
        <time>2019-03-02T00:42:32Z</time>
      </trkpt>
      <trkpt lat="42.635803000" lon="-2.893029000">
        <ele>677.40</ele>
        <time>2019-03-02T00:42:38Z</time>
      </trkpt>
      <trkpt lat="42.635916000" lon="-2.893007000">
        <ele>679.80</ele>
        <time>2019-03-02T00:42:46Z</time>
      </trkpt>
      <trkpt lat="42.636056000" lon="-2.892987000">
        <ele>682.00</ele>
        <time>2019-03-02T00:42:56Z</time>
      </trkpt>
      <trkpt lat="42.636178000" lon="-2.892970000">
        <ele>684.20</ele>
        <time>2019-03-02T00:43:04Z</time>
      </trkpt>
      <trkpt lat="42.636302000" lon="-2.892948000">
        <ele>686.80</ele>
        <time>2019-03-02T00:43:12Z</time>
      </trkpt>
      <trkpt lat="42.636393000" lon="-2.892910000">
        <ele>688.00</ele>
        <time>2019-03-02T00:43:18Z</time>
      </trkpt>
      <trkpt lat="42.636606000" lon="-2.892698000">
        <ele>690.00</ele>
        <time>2019-03-02T00:43:51Z</time>
      </trkpt>
      <trkpt lat="42.636826000" lon="-2.892181000">
        <ele>687.40</ele>
        <time>2019-03-02T00:43:58Z</time>
      </trkpt>
      <trkpt lat="42.636994000" lon="-2.892044000">
        <ele>684.20</ele>
        <time>2019-03-02T00:44:01Z</time>
      </trkpt>
      <trkpt lat="42.637128000" lon="-2.892029000">
        <ele>681.80</ele>
        <time>2019-03-02T00:44:03Z</time>
      </trkpt>
      <trkpt lat="42.637266000" lon="-2.891993000">
        <ele>679.60</ele>
        <time>2019-03-02T00:44:05Z</time>
      </trkpt>
      <trkpt lat="42.637410000" lon="-2.891943000">
        <ele>676.60</ele>
        <time>2019-03-02T00:44:07Z</time>
      </trkpt>
      <trkpt lat="42.637547000" lon="-2.891869000">
        <ele>673.00</ele>
        <time>2019-03-02T00:44:09Z</time>
      </trkpt>
      <trkpt lat="42.637667000" lon="-2.891777000">
        <ele>671.20</ele>
        <time>2019-03-02T00:44:11Z</time>
      </trkpt>
      <trkpt lat="42.637779000" lon="-2.891682000">
        <ele>669.00</ele>
        <time>2019-03-02T00:44:13Z</time>
      </trkpt>
      <trkpt lat="42.637880000" lon="-2.891616000">
        <ele>665.60</ele>
        <time>2019-03-02T00:44:15Z</time>
      </trkpt>
      <trkpt lat="42.637970000" lon="-2.891641000">
        <ele>662.00</ele>
        <time>2019-03-02T00:44:17Z</time>
      </trkpt>
      <trkpt lat="42.638045000" lon="-2.891577000">
        <ele>657.20</ele>
        <time>2019-03-02T00:44:20Z</time>
      </trkpt>
      <trkpt lat="42.638070000" lon="-2.891444000">
        <ele>654.60</ele>
        <time>2019-03-02T00:44:22Z</time>
      </trkpt>
      <trkpt lat="42.638103000" lon="-2.891286000">
        <ele>652.00</ele>
        <time>2019-03-02T00:44:24Z</time>
      </trkpt>
      <trkpt lat="42.638161000" lon="-2.891014000">
        <ele>649.60</ele>
        <time>2019-03-02T00:44:27Z</time>
      </trkpt>
      <trkpt lat="42.638189000" lon="-2.890808000">
        <ele>648.20</ele>
        <time>2019-03-02T00:44:29Z</time>
      </trkpt>
      <trkpt lat="42.638248000" lon="-2.890616000">
        <ele>646.40</ele>
        <time>2019-03-02T00:44:31Z</time>
      </trkpt>
      <trkpt lat="42.638306000" lon="-2.890443000">
        <ele>645.00</ele>
        <time>2019-03-02T00:44:33Z</time>
      </trkpt>
      <trkpt lat="42.638319000" lon="-2.890290000">
        <ele>643.60</ele>
        <time>2019-03-02T00:44:35Z</time>
      </trkpt>
      <trkpt lat="42.638209000" lon="-2.890131000">
        <ele>638.20</ele>
        <time>2019-03-02T00:44:39Z</time>
      </trkpt>
      <trkpt lat="42.638121000" lon="-2.890027000">
        <ele>637.20</ele>
        <time>2019-03-02T00:44:41Z</time>
      </trkpt>
      <trkpt lat="42.637848000" lon="-2.889695000">
        <ele>636.20</ele>
        <time>2019-03-02T00:44:46Z</time>
      </trkpt>
      <trkpt lat="42.637682000" lon="-2.889548000">
        <ele>634.60</ele>
        <time>2019-03-02T00:44:49Z</time>
      </trkpt>
      <trkpt lat="42.637551000" lon="-2.889469000">
        <ele>632.00</ele>
        <time>2019-03-02T00:44:51Z</time>
      </trkpt>
      <trkpt lat="42.637312000" lon="-2.889404000">
        <ele>629.40</ele>
        <time>2019-03-02T00:44:54Z</time>
      </trkpt>
      <trkpt lat="42.637108000" lon="-2.889258000">
        <ele>628.00</ele>
        <time>2019-03-02T00:44:57Z</time>
      </trkpt>
      <trkpt lat="42.636983000" lon="-2.889175000">
        <ele>625.20</ele>
        <time>2019-03-02T00:44:59Z</time>
      </trkpt>
      <trkpt lat="42.636873000" lon="-2.889113000">
        <ele>622.40</ele>
        <time>2019-03-02T00:45:01Z</time>
      </trkpt>
      <trkpt lat="42.636752000" lon="-2.888983000">
        <ele>619.20</ele>
        <time>2019-03-02T00:45:04Z</time>
      </trkpt>
      <trkpt lat="42.636612000" lon="-2.888916000">
        <ele>615.40</ele>
        <time>2019-03-02T00:45:06Z</time>
      </trkpt>
      <trkpt lat="42.636442000" lon="-2.888829000">
        <ele>613.00</ele>
        <time>2019-03-02T00:45:08Z</time>
      </trkpt>
      <trkpt lat="42.636355000" lon="-2.888788000">
        <ele>612.00</ele>
        <time>2019-03-02T00:45:09Z</time>
      </trkpt>
      <trkpt lat="42.636218000" lon="-2.888686000">
        <ele>609.60</ele>
        <time>2019-03-02T00:45:11Z</time>
      </trkpt>
      <trkpt lat="42.636113000" lon="-2.888529000">
        <ele>606.20</ele>
        <time>2019-03-02T00:45:13Z</time>
      </trkpt>
      <trkpt lat="42.636011000" lon="-2.888366000">
        <ele>602.00</ele>
        <time>2019-03-02T00:45:15Z</time>
      </trkpt>
      <trkpt lat="42.635918000" lon="-2.888190000">
        <ele>599.00</ele>
        <time>2019-03-02T00:45:17Z</time>
      </trkpt>
      <trkpt lat="42.635835000" lon="-2.888014000">
        <ele>597.80</ele>
        <time>2019-03-02T00:45:19Z</time>
      </trkpt>
      <trkpt lat="42.635678000" lon="-2.887765000">
        <ele>596.60</ele>
        <time>2019-03-02T00:45:22Z</time>
      </trkpt>
      <trkpt lat="42.635554000" lon="-2.887608000">
        <ele>596.00</ele>
        <time>2019-03-02T00:45:24Z</time>
      </trkpt>
      <trkpt lat="42.635345000" lon="-2.887415000">
        <ele>594.20</ele>
        <time>2019-03-02T00:45:27Z</time>
      </trkpt>
      <trkpt lat="42.635046000" lon="-2.887279000">
        <ele>593.20</ele>
        <time>2019-03-02T00:45:31Z</time>
      </trkpt>
      <trkpt lat="42.634648000" lon="-2.887339000">
        <ele>592.40</ele>
        <time>2019-03-02T00:45:37Z</time>
      </trkpt>
      <trkpt lat="42.634345000" lon="-2.887333000">
        <ele>591.60</ele>
        <time>2019-03-02T00:45:42Z</time>
      </trkpt>
      <trkpt lat="42.634265000" lon="-2.887368000">
        <ele>586.40</ele>
        <time>2019-03-02T00:45:46Z</time>
      </trkpt>
      <trkpt lat="42.634166000" lon="-2.887461000">
        <ele>583.40</ele>
        <time>2019-03-02T00:45:49Z</time>
      </trkpt>
      <trkpt lat="42.633957000" lon="-2.887523000">
        <ele>582.60</ele>
        <time>2019-03-02T00:45:53Z</time>
      </trkpt>
      <trkpt lat="42.633862000" lon="-2.887517000">
        <ele>582.00</ele>
        <time>2019-03-02T00:45:55Z</time>
      </trkpt>
      <trkpt lat="42.633729000" lon="-2.887446000">
        <ele>581.20</ele>
        <time>2019-03-02T00:45:58Z</time>
      </trkpt>
      <trkpt lat="42.633552000" lon="-2.887493000">
        <ele>581.20</ele>
        <time>2019-03-02T00:46:02Z</time>
      </trkpt>
      <trkpt lat="42.633152000" lon="-2.887439000">
        <ele>582.80</ele>
        <time>2019-03-02T00:46:12Z</time>
      </trkpt>
      <trkpt lat="42.632992000" lon="-2.887494000">
        <ele>584.00</ele>
        <time>2019-03-02T00:46:16Z</time>
      </trkpt>
      <trkpt lat="42.632637000" lon="-2.887531000">
        <ele>584.40</ele>
        <time>2019-03-02T00:46:24Z</time>
      </trkpt>
      <trkpt lat="42.632500000" lon="-2.887533000">
        <ele>585.00</ele>
        <time>2019-03-02T00:46:32Z</time>
      </trkpt>
      <trkpt lat="42.632387000" lon="-2.887591000">
        <ele>588.40</ele>
        <time>2019-03-02T00:46:42Z</time>
      </trkpt>
      <trkpt lat="42.632157000" lon="-2.888029000">
        <ele>588.80</ele>
        <time>2019-03-02T00:46:53Z</time>
      </trkpt>
      <trkpt lat="42.631947000" lon="-2.888322000">
        <ele>587.40</ele>
        <time>2019-03-02T00:46:58Z</time>
      </trkpt>
      <trkpt lat="42.631858000" lon="-2.888433000">
        <ele>586.20</ele>
        <time>2019-03-02T00:47:00Z</time>
      </trkpt>
      <trkpt lat="42.631770000" lon="-2.888551000">
        <ele>585.20</ele>
        <time>2019-03-02T00:47:02Z</time>
      </trkpt>
      <trkpt lat="42.631649000" lon="-2.888729000">
        <ele>584.40</ele>
        <time>2019-03-02T00:47:05Z</time>
      </trkpt>
      <trkpt lat="42.631401000" lon="-2.889058000">
        <ele>583.40</ele>
        <time>2019-03-02T00:47:11Z</time>
      </trkpt>
      <trkpt lat="42.631326000" lon="-2.889157000">
        <ele>583.20</ele>
        <time>2019-03-02T00:47:13Z</time>
      </trkpt>
      <trkpt lat="42.631201000" lon="-2.889347000">
        <ele>583.20</ele>
        <time>2019-03-02T00:47:17Z</time>
      </trkpt>
      <trkpt lat="42.630923000" lon="-2.889372000">
        <ele>584.20</ele>
        <time>2019-03-02T00:47:24Z</time>
      </trkpt>
      <trkpt lat="42.630654000" lon="-2.889158000">
        <ele>585.40</ele>
        <time>2019-03-02T00:47:32Z</time>
      </trkpt>
      <trkpt lat="42.630519000" lon="-2.888863000">
        <ele>586.60</ele>
        <time>2019-03-02T00:47:46Z</time>
      </trkpt>
      <trkpt lat="42.630637000" lon="-2.888501000">
        <ele>588.60</ele>
        <time>2019-03-02T00:48:08Z</time>
      </trkpt>
      <trkpt lat="42.630738000" lon="-2.888103000">
        <ele>589.60</ele>
        <time>2019-03-02T00:48:18Z</time>
      </trkpt>
      <trkpt lat="42.630790000" lon="-2.887809000">
        <ele>590.60</ele>
        <time>2019-03-02T00:48:24Z</time>
      </trkpt>
      <trkpt lat="42.630814000" lon="-2.887593000">
        <ele>591.20</ele>
        <time>2019-03-02T00:48:28Z</time>
      </trkpt>
      <trkpt lat="42.630772000" lon="-2.887240000">
        <ele>591.40</ele>
        <time>2019-03-02T00:48:34Z</time>
      </trkpt>
      <trkpt lat="42.630726000" lon="-2.887073000">
        <ele>591.40</ele>
        <time>2019-03-02T00:48:37Z</time>
      </trkpt>
      <trkpt lat="42.630557000" lon="-2.886460000">
        <ele>592.00</ele>
        <time>2019-03-02T00:48:50Z</time>
      </trkpt>
      <trkpt lat="42.630540000" lon="-2.885943000">
        <ele>593.00</ele>
        <time>2019-03-02T00:49:03Z</time>
      </trkpt>
      <trkpt lat="42.630478000" lon="-2.885765000">
        <ele>595.20</ele>
        <time>2019-03-02T00:49:10Z</time>
      </trkpt>
      <trkpt lat="42.630383000" lon="-2.885567000">
        <ele>597.40</ele>
        <time>2019-03-02T00:49:19Z</time>
      </trkpt>
      <trkpt lat="42.630281000" lon="-2.885451000">
        <ele>599.60</ele>
        <time>2019-03-02T00:49:26Z</time>
      </trkpt>
      <trkpt lat="42.630175000" lon="-2.885402000">
        <ele>600.80</ele>
        <time>2019-03-02T00:49:31Z</time>
      </trkpt>
      <trkpt lat="42.629639000" lon="-2.885386000">
        <ele>601.20</ele>
        <time>2019-03-02T00:49:48Z</time>
      </trkpt>
      <trkpt lat="42.629323000" lon="-2.885175000">
        <ele>602.00</ele>
        <time>2019-03-02T00:50:00Z</time>
      </trkpt>
      <trkpt lat="42.629080000" lon="-2.884510000">
        <ele>603.00</ele>
        <time>2019-03-02T00:50:16Z</time>
      </trkpt>
      <trkpt lat="42.629059000" lon="-2.884231000">
        <ele>604.00</ele>
        <time>2019-03-02T00:50:23Z</time>
      </trkpt>
      <trkpt lat="42.629064000" lon="-2.884093000">
        <ele>604.20</ele>
        <time>2019-03-02T00:50:26Z</time>
      </trkpt>
      <trkpt lat="42.628967000" lon="-2.883997000">
        <ele>604.40</ele>
        <time>2019-03-02T00:50:31Z</time>
      </trkpt>
      <trkpt lat="42.628861000" lon="-2.883867000">
        <ele>605.00</ele>
        <time>2019-03-02T00:50:39Z</time>
      </trkpt>
      <trkpt lat="42.628464000" lon="-2.883244000">
        <ele>605.00</ele>
        <time>2019-03-02T00:50:56Z</time>
      </trkpt>
      <trkpt lat="42.628195000" lon="-2.882904000">
        <ele>603.80</ele>
        <time>2019-03-02T00:51:02Z</time>
      </trkpt>
      <trkpt lat="42.628103000" lon="-2.882794000">
        <ele>603.00</ele>
        <time>2019-03-02T00:51:04Z</time>
      </trkpt>
      <trkpt lat="42.627924000" lon="-2.882529000">
        <ele>601.40</ele>
        <time>2019-03-02T00:51:08Z</time>
      </trkpt>
      <trkpt lat="42.627653000" lon="-2.882147000">
        <ele>600.00</ele>
        <time>2019-03-02T00:51:14Z</time>
      </trkpt>
      <trkpt lat="42.627264000" lon="-2.881582000">
        <ele>599.00</ele>
        <time>2019-03-02T00:51:23Z</time>
      </trkpt>
      <trkpt lat="42.627189000" lon="-2.881447000">
        <ele>599.00</ele>
        <time>2019-03-02T00:51:25Z</time>
      </trkpt>
      <trkpt lat="42.627037000" lon="-2.881154000">
        <ele>598.60</ele>
        <time>2019-03-02T00:51:29Z</time>
      </trkpt>
      <trkpt lat="42.626976000" lon="-2.880989000">
        <ele>598.00</ele>
        <time>2019-03-02T00:51:31Z</time>
      </trkpt>
      <trkpt lat="42.626806000" lon="-2.880500000">
        <ele>596.80</ele>
        <time>2019-03-02T00:51:37Z</time>
      </trkpt>
      <trkpt lat="42.626698000" lon="-2.880193000">
        <ele>595.60</ele>
        <time>2019-03-02T00:51:41Z</time>
      </trkpt>
      <trkpt lat="42.626601000" lon="-2.879896000">
        <ele>594.60</ele>
        <time>2019-03-02T00:51:45Z</time>
      </trkpt>
      <trkpt lat="42.626495000" lon="-2.879495000">
        <ele>593.80</ele>
        <time>2019-03-02T00:51:51Z</time>
      </trkpt>
      <trkpt lat="42.626384000" lon="-2.878973000">
        <ele>594.00</ele>
        <time>2019-03-02T00:51:59Z</time>
      </trkpt>
      <trkpt lat="42.626311000" lon="-2.878697000">
        <ele>594.20</ele>
        <time>2019-03-02T00:52:04Z</time>
      </trkpt>
      <trkpt lat="42.626181000" lon="-2.878128000">
        <ele>595.60</ele>
        <time>2019-03-02T00:52:16Z</time>
      </trkpt>
      <trkpt lat="42.626110000" lon="-2.877943000">
        <ele>596.80</ele>
        <time>2019-03-02T00:52:21Z</time>
      </trkpt>
      <trkpt lat="42.625979000" lon="-2.877753000">
        <ele>598.00</ele>
        <time>2019-03-02T00:52:30Z</time>
      </trkpt>
      <trkpt lat="42.625903000" lon="-2.877685000">
        <ele>600.40</ele>
        <time>2019-03-02T00:52:37Z</time>
      </trkpt>
      <trkpt lat="42.625771000" lon="-2.877590000">
        <ele>604.00</ele>
        <time>2019-03-02T00:52:52Z</time>
      </trkpt>
      <trkpt lat="42.625648000" lon="-2.877503000">
        <ele>605.00</ele>
        <time>2019-03-02T00:53:01Z</time>
      </trkpt>
      <trkpt lat="42.625556000" lon="-2.877469000">
        <ele>605.80</ele>
        <time>2019-03-02T00:53:07Z</time>
      </trkpt>
      <trkpt lat="42.625474000" lon="-2.877401000">
        <ele>607.20</ele>
        <time>2019-03-02T00:53:13Z</time>
      </trkpt>
      <trkpt lat="42.625352000" lon="-2.877381000">
        <ele>608.80</ele>
        <time>2019-03-02T00:53:19Z</time>
      </trkpt>
      <trkpt lat="42.625202000" lon="-2.877405000">
        <ele>609.80</ele>
        <time>2019-03-02T00:53:26Z</time>
      </trkpt>
      <trkpt lat="42.625101000" lon="-2.877438000">
        <ele>610.00</ele>
        <time>2019-03-02T00:53:31Z</time>
      </trkpt>
      <trkpt lat="42.624950000" lon="-2.877493000">
        <ele>611.00</ele>
        <time>2019-03-02T00:53:38Z</time>
      </trkpt>
      <trkpt lat="42.624523000" lon="-2.877589000">
        <ele>612.00</ele>
        <time>2019-03-02T00:53:55Z</time>
      </trkpt>
      <trkpt lat="42.624380000" lon="-2.877605000">
        <ele>613.20</ele>
        <time>2019-03-02T00:54:01Z</time>
      </trkpt>
      <trkpt lat="42.624085000" lon="-2.877758000">
        <ele>614.20</ele>
        <time>2019-03-02T00:54:13Z</time>
      </trkpt>
      <trkpt lat="42.623891000" lon="-2.877768000">
        <ele>615.40</ele>
        <time>2019-03-02T00:54:23Z</time>
      </trkpt>
      <trkpt lat="42.623795000" lon="-2.877709000">
        <ele>616.40</ele>
        <time>2019-03-02T00:54:28Z</time>
      </trkpt>
      <trkpt lat="42.623652000" lon="-2.877533000">
        <ele>617.20</ele>
        <time>2019-03-02T00:54:36Z</time>
      </trkpt>
      <trkpt lat="42.623589000" lon="-2.877405000">
        <ele>617.80</ele>
        <time>2019-03-02T00:54:41Z</time>
      </trkpt>
      <trkpt lat="42.623507000" lon="-2.877329000">
        <ele>619.40</ele>
        <time>2019-03-02T00:54:49Z</time>
      </trkpt>
      <trkpt lat="42.623313000" lon="-2.877098000">
        <ele>620.40</ele>
        <time>2019-03-02T00:55:03Z</time>
      </trkpt>
      <trkpt lat="42.623191000" lon="-2.876819000">
        <ele>621.60</ele>
        <time>2019-03-02T00:55:13Z</time>
      </trkpt>
      <trkpt lat="42.623065000" lon="-2.876658000">
        <ele>622.40</ele>
        <time>2019-03-02T00:55:20Z</time>
      </trkpt>
      <trkpt lat="42.622994000" lon="-2.876505000">
        <ele>623.80</ele>
        <time>2019-03-02T00:55:27Z</time>
      </trkpt>
      <trkpt lat="42.622944000" lon="-2.876379000">
        <ele>624.80</ele>
        <time>2019-03-02T00:55:32Z</time>
      </trkpt>
      <trkpt lat="42.622908000" lon="-2.876243000">
        <ele>625.80</ele>
        <time>2019-03-02T00:55:38Z</time>
      </trkpt>
      <trkpt lat="42.622902000" lon="-2.876095000">
        <ele>627.60</ele>
        <time>2019-03-02T00:55:45Z</time>
      </trkpt>
      <trkpt lat="42.622859000" lon="-2.875905000">
        <ele>629.20</ele>
        <time>2019-03-02T00:55:54Z</time>
      </trkpt>
      <trkpt lat="42.622817000" lon="-2.875794000">
        <ele>630.20</ele>
        <time>2019-03-02T00:55:59Z</time>
      </trkpt>
      <trkpt lat="42.622722000" lon="-2.875679000">
        <ele>632.00</ele>
        <time>2019-03-02T00:56:06Z</time>
      </trkpt>
      <trkpt lat="42.622616000" lon="-2.875600000">
        <ele>635.00</ele>
        <time>2019-03-02T00:56:16Z</time>
      </trkpt>
      <trkpt lat="42.621993000" lon="-2.875700000">
        <ele>635.20</ele>
        <time>2019-03-02T00:56:53Z</time>
      </trkpt>
      <trkpt lat="42.621873000" lon="-2.875722000">
        <ele>635.20</ele>
        <time>2019-03-02T00:56:57Z</time>
      </trkpt>
      <trkpt lat="42.621727000" lon="-2.875753000">
        <ele>635.20</ele>
        <time>2019-03-02T00:57:05Z</time>
      </trkpt>
      <trkpt lat="42.621614000" lon="-2.875707000">
        <ele>635.40</ele>
        <time>2019-03-02T00:57:10Z</time>
      </trkpt>
      <trkpt lat="42.621541000" lon="-2.875610000">
        <ele>635.80</ele>
        <time>2019-03-02T00:57:16Z</time>
      </trkpt>
      <trkpt lat="42.621499000" lon="-2.875448000">
        <ele>636.40</ele>
        <time>2019-03-02T00:57:21Z</time>
      </trkpt>
      <trkpt lat="42.621029000" lon="-2.875167000">
        <ele>637.80</ele>
        <time>2019-03-02T00:57:36Z</time>
      </trkpt>
      <trkpt lat="42.620813000" lon="-2.874686000">
        <ele>637.60</ele>
        <time>2019-03-02T00:57:44Z</time>
      </trkpt>
      <trkpt lat="42.620726000" lon="-2.874521000">
        <ele>635.80</ele>
        <time>2019-03-02T00:57:47Z</time>
      </trkpt>
      <trkpt lat="42.620605000" lon="-2.874377000">
        <ele>632.00</ele>
        <time>2019-03-02T00:57:51Z</time>
      </trkpt>
      <trkpt lat="42.620471000" lon="-2.874316000">
        <ele>631.40</ele>
        <time>2019-03-02T00:57:54Z</time>
      </trkpt>
      <trkpt lat="42.619922000" lon="-2.874180000">
        <ele>631.20</ele>
        <time>2019-03-02T00:58:09Z</time>
      </trkpt>
      <trkpt lat="42.619655000" lon="-2.874094000">
        <ele>633.20</ele>
        <time>2019-03-02T00:58:18Z</time>
      </trkpt>
      <trkpt lat="42.619213000" lon="-2.874049000">
        <ele>633.80</ele>
        <time>2019-03-02T00:58:30Z</time>
      </trkpt>
      <trkpt lat="42.618666000" lon="-2.874031000">
        <ele>631.20</ele>
        <time>2019-03-02T00:58:37Z</time>
      </trkpt>
      <trkpt lat="42.618498000" lon="-2.874009000">
        <ele>628.60</ele>
        <time>2019-03-02T00:58:39Z</time>
      </trkpt>
      <trkpt lat="42.618333000" lon="-2.873967000">
        <ele>625.60</ele>
        <time>2019-03-02T00:58:41Z</time>
      </trkpt>
      <trkpt lat="42.618194000" lon="-2.873880000">
        <ele>623.40</ele>
        <time>2019-03-02T00:58:43Z</time>
      </trkpt>
      <trkpt lat="42.618089000" lon="-2.873729000">
        <ele>621.60</ele>
        <time>2019-03-02T00:58:45Z</time>
      </trkpt>
      <trkpt lat="42.617973000" lon="-2.873567000">
        <ele>618.80</ele>
        <time>2019-03-02T00:58:47Z</time>
      </trkpt>
      <trkpt lat="42.617762000" lon="-2.873376000">
        <ele>616.60</ele>
        <time>2019-03-02T00:58:50Z</time>
      </trkpt>
      <trkpt lat="42.617435000" lon="-2.873252000">
        <ele>615.20</ele>
        <time>2019-03-02T00:58:54Z</time>
      </trkpt>
      <trkpt lat="42.617261000" lon="-2.873195000">
        <ele>613.60</ele>
        <time>2019-03-02T00:58:56Z</time>
      </trkpt>
      <trkpt lat="42.617079000" lon="-2.873122000">
        <ele>612.60</ele>
        <time>2019-03-02T00:58:58Z</time>
      </trkpt>
      <trkpt lat="42.616904000" lon="-2.873032000">
        <ele>610.60</ele>
        <time>2019-03-02T00:59:00Z</time>
      </trkpt>
      <trkpt lat="42.616747000" lon="-2.872956000">
        <ele>608.40</ele>
        <time>2019-03-02T00:59:02Z</time>
      </trkpt>
      <trkpt lat="42.616589000" lon="-2.872912000">
        <ele>605.80</ele>
        <time>2019-03-02T00:59:04Z</time>
      </trkpt>
      <trkpt lat="42.616431000" lon="-2.872888000">
        <ele>603.80</ele>
        <time>2019-03-02T00:59:06Z</time>
      </trkpt>
      <trkpt lat="42.616225000" lon="-2.872910000">
        <ele>600.00</ele>
        <time>2019-03-02T00:59:09Z</time>
      </trkpt>
      <trkpt lat="42.616091000" lon="-2.872944000">
        <ele>598.40</ele>
        <time>2019-03-02T00:59:11Z</time>
      </trkpt>
      <trkpt lat="42.615980000" lon="-2.872987000">
        <ele>596.60</ele>
        <time>2019-03-02T00:59:13Z</time>
      </trkpt>
      <trkpt lat="42.615829000" lon="-2.873073000">
        <ele>594.00</ele>
        <time>2019-03-02T00:59:16Z</time>
      </trkpt>
      <trkpt lat="42.615716000" lon="-2.873083000">
        <ele>591.40</ele>
        <time>2019-03-02T00:59:18Z</time>
      </trkpt>
      <trkpt lat="42.615619000" lon="-2.873035000">
        <ele>588.60</ele>
        <time>2019-03-02T00:59:20Z</time>
      </trkpt>
      <trkpt lat="42.615466000" lon="-2.872942000">
        <ele>585.20</ele>
        <time>2019-03-02T00:59:24Z</time>
      </trkpt>
      <trkpt lat="42.615374000" lon="-2.872878000">
        <ele>583.00</ele>
        <time>2019-03-02T00:59:26Z</time>
      </trkpt>
      <trkpt lat="42.615285000" lon="-2.872789000">
        <ele>581.40</ele>
        <time>2019-03-02T00:59:28Z</time>
      </trkpt>
      <trkpt lat="42.615194000" lon="-2.872722000">
        <ele>580.20</ele>
        <time>2019-03-02T00:59:30Z</time>
      </trkpt>
      <trkpt lat="42.615081000" lon="-2.872705000">
        <ele>578.80</ele>
        <time>2019-03-02T00:59:32Z</time>
      </trkpt>
      <trkpt lat="42.614953000" lon="-2.872717000">
        <ele>577.20</ele>
        <time>2019-03-02T00:59:34Z</time>
      </trkpt>
      <trkpt lat="42.614821000" lon="-2.872748000">
        <ele>575.40</ele>
        <time>2019-03-02T00:59:36Z</time>
      </trkpt>
      <trkpt lat="42.614586000" lon="-2.872789000">
        <ele>573.60</ele>
        <time>2019-03-02T00:59:39Z</time>
      </trkpt>
      <trkpt lat="42.614421000" lon="-2.872818000">
        <ele>572.60</ele>
        <time>2019-03-02T00:59:41Z</time>
      </trkpt>
      <trkpt lat="42.614252000" lon="-2.872843000">
        <ele>571.00</ele>
        <time>2019-03-02T00:59:43Z</time>
      </trkpt>
      <trkpt lat="42.614073000" lon="-2.872865000">
        <ele>569.40</ele>
        <time>2019-03-02T00:59:45Z</time>
      </trkpt>
      <trkpt lat="42.613978000" lon="-2.872880000">
        <ele>567.60</ele>
        <time>2019-03-02T00:59:46Z</time>
      </trkpt>
      <trkpt lat="42.613881000" lon="-2.872893000">
        <ele>566.00</ele>
        <time>2019-03-02T00:59:47Z</time>
      </trkpt>
      <trkpt lat="42.613710000" lon="-2.872883000">
        <ele>563.60</ele>
        <time>2019-03-02T00:59:49Z</time>
      </trkpt>
      <trkpt lat="42.613552000" lon="-2.872871000">
        <ele>562.40</ele>
        <time>2019-03-02T00:59:51Z</time>
      </trkpt>
      <trkpt lat="42.613389000" lon="-2.872901000">
        <ele>559.60</ele>
        <time>2019-03-02T00:59:53Z</time>
      </trkpt>
      <trkpt lat="42.613220000" lon="-2.872929000">
        <ele>557.60</ele>
        <time>2019-03-02T00:59:55Z</time>
      </trkpt>
      <trkpt lat="42.613052000" lon="-2.872904000">
        <ele>556.40</ele>
        <time>2019-03-02T00:59:57Z</time>
      </trkpt>
      <trkpt lat="42.612818000" lon="-2.872823000">
        <ele>555.20</ele>
        <time>2019-03-02T01:00:00Z</time>
      </trkpt>
      <trkpt lat="42.612685000" lon="-2.872755000">
        <ele>553.60</ele>
        <time>2019-03-02T01:00:02Z</time>
      </trkpt>
      <trkpt lat="42.612184000" lon="-2.872381000">
        <ele>554.20</ele>
        <time>2019-03-02T01:00:16Z</time>
      </trkpt>
      <trkpt lat="42.611805000" lon="-2.872360000">
        <ele>554.20</ele>
        <time>2019-03-02T01:00:21Z</time>
      </trkpt>
      <trkpt lat="42.611455000" lon="-2.872489000">
        <ele>553.80</ele>
        <time>2019-03-02T01:00:25Z</time>
      </trkpt>
      <trkpt lat="42.611290000" lon="-2.872511000">
        <ele>551.40</ele>
        <time>2019-03-02T01:00:27Z</time>
      </trkpt>
      <trkpt lat="42.611124000" lon="-2.872511000">
        <ele>548.40</ele>
        <time>2019-03-02T01:00:29Z</time>
      </trkpt>
      <trkpt lat="42.610961000" lon="-2.872481000">
        <ele>545.60</ele>
        <time>2019-03-02T01:00:31Z</time>
      </trkpt>
      <trkpt lat="42.610763000" lon="-2.872407000">
        <ele>542.00</ele>
        <time>2019-03-02T01:00:34Z</time>
      </trkpt>
      <trkpt lat="42.610644000" lon="-2.872461000">
        <ele>540.60</ele>
        <time>2019-03-02T01:00:37Z</time>
      </trkpt>
      <trkpt lat="42.610633000" lon="-2.872704000">
        <ele>538.00</ele>
        <time>2019-03-02T01:00:41Z</time>
      </trkpt>
      <trkpt lat="42.610618000" lon="-2.873011000">
        <ele>536.80</ele>
        <time>2019-03-02T01:00:46Z</time>
      </trkpt>
      <trkpt lat="42.610565000" lon="-2.873202000">
        <ele>536.40</ele>
        <time>2019-03-02T01:00:51Z</time>
      </trkpt>
      <trkpt lat="42.610355000" lon="-2.873215000">
        <ele>537.40</ele>
        <time>2019-03-02T01:00:58Z</time>
      </trkpt>
      <trkpt lat="42.609750000" lon="-2.873193000">
        <ele>537.40</ele>
        <time>2019-03-02T01:01:11Z</time>
      </trkpt>
      <trkpt lat="42.609594000" lon="-2.873216000">
        <ele>536.60</ele>
        <time>2019-03-02T01:01:14Z</time>
      </trkpt>
      <trkpt lat="42.609392000" lon="-2.873244000">
        <ele>535.40</ele>
        <time>2019-03-02T01:01:18Z</time>
      </trkpt>
      <trkpt lat="42.609139000" lon="-2.873141000">
        <ele>534.80</ele>
        <time>2019-03-02T01:01:23Z</time>
      </trkpt>
      <trkpt lat="42.609039000" lon="-2.873063000">
        <ele>534.40</ele>
        <time>2019-03-02T01:01:25Z</time>
      </trkpt>
      <trkpt lat="42.608836000" lon="-2.872893000">
        <ele>533.40</ele>
        <time>2019-03-02T01:01:29Z</time>
      </trkpt>
      <trkpt lat="42.608563000" lon="-2.872672000">
        <ele>532.20</ele>
        <time>2019-03-02T01:01:34Z</time>
      </trkpt>
      <trkpt lat="42.608467000" lon="-2.872586000">
        <ele>530.80</ele>
        <time>2019-03-02T01:01:36Z</time>
      </trkpt>
      <trkpt lat="42.608364000" lon="-2.872499000">
        <ele>529.20</ele>
        <time>2019-03-02T01:01:39Z</time>
      </trkpt>
      <trkpt lat="42.608151000" lon="-2.872246000">
        <ele>528.20</ele>
        <time>2019-03-02T01:01:46Z</time>
      </trkpt>
      <trkpt lat="42.607916000" lon="-2.871969000">
        <ele>527.60</ele>
        <time>2019-03-02T01:01:51Z</time>
      </trkpt>
      <trkpt lat="42.607826000" lon="-2.871821000">
        <ele>527.20</ele>
        <time>2019-03-02T01:01:53Z</time>
      </trkpt>
      <trkpt lat="42.607667000" lon="-2.871625000">
        <ele>525.80</ele>
        <time>2019-03-02T01:01:56Z</time>
      </trkpt>
      <trkpt lat="42.607552000" lon="-2.871532000">
        <ele>524.60</ele>
        <time>2019-03-02T01:01:58Z</time>
      </trkpt>
      <trkpt lat="42.607436000" lon="-2.871457000">
        <ele>522.80</ele>
        <time>2019-03-02T01:02:00Z</time>
      </trkpt>
      <trkpt lat="42.606922000" lon="-2.871249000">
        <ele>520.00</ele>
        <time>2019-03-02T01:02:08Z</time>
      </trkpt>
      <trkpt lat="42.606443000" lon="-2.870953000">
        <ele>519.00</ele>
        <time>2019-03-02T01:02:15Z</time>
      </trkpt>
      <trkpt lat="42.606310000" lon="-2.870871000">
        <ele>517.80</ele>
        <time>2019-03-02T01:02:17Z</time>
      </trkpt>
      <trkpt lat="42.606117000" lon="-2.870751000">
        <ele>516.80</ele>
        <time>2019-03-02T01:02:20Z</time>
      </trkpt>
      <trkpt lat="42.605792000" lon="-2.870552000">
        <ele>515.60</ele>
        <time>2019-03-02T01:02:25Z</time>
      </trkpt>
      <trkpt lat="42.605445000" lon="-2.870347000">
        <ele>514.60</ele>
        <time>2019-03-02T01:02:30Z</time>
      </trkpt>
      <trkpt lat="42.605174000" lon="-2.870292000">
        <ele>513.20</ele>
        <time>2019-03-02T01:02:34Z</time>
      </trkpt>
      <trkpt lat="42.605041000" lon="-2.870274000">
        <ele>512.00</ele>
        <time>2019-03-02T01:02:36Z</time>
      </trkpt>
      <trkpt lat="42.604926000" lon="-2.870230000">
        <ele>510.80</ele>
        <time>2019-03-02T01:02:38Z</time>
      </trkpt>
      <trkpt lat="42.604816000" lon="-2.870006000">
        <ele>510.00</ele>
        <time>2019-03-02T01:02:41Z</time>
      </trkpt>
      <trkpt lat="42.604732000" lon="-2.869715000">
        <ele>507.60</ele>
        <time>2019-03-02T01:02:44Z</time>
      </trkpt>
      <trkpt lat="42.604693000" lon="-2.869517000">
        <ele>505.00</ele>
        <time>2019-03-02T01:02:46Z</time>
      </trkpt>
      <trkpt lat="42.604669000" lon="-2.869311000">
        <ele>503.00</ele>
        <time>2019-03-02T01:02:48Z</time>
      </trkpt>
      <trkpt lat="42.604636000" lon="-2.869115000">
        <ele>500.40</ele>
        <time>2019-03-02T01:02:50Z</time>
      </trkpt>
      <trkpt lat="42.604504000" lon="-2.868751000">
        <ele>498.20</ele>
        <time>2019-03-02T01:02:54Z</time>
      </trkpt>
      <trkpt lat="42.604350000" lon="-2.868330000">
        <ele>497.20</ele>
        <time>2019-03-02T01:02:59Z</time>
      </trkpt>
      <trkpt lat="42.604091000" lon="-2.867804000">
        <ele>496.60</ele>
        <time>2019-03-02T01:03:06Z</time>
      </trkpt>
      <trkpt lat="42.604046000" lon="-2.867469000">
        <ele>496.00</ele>
        <time>2019-03-02T01:03:10Z</time>
      </trkpt>
      <trkpt lat="42.603931000" lon="-2.867263000">
        <ele>495.60</ele>
        <time>2019-03-02T01:03:13Z</time>
      </trkpt>
      <trkpt lat="42.603730000" lon="-2.867044000">
        <ele>495.60</ele>
        <time>2019-03-02T01:03:17Z</time>
      </trkpt>
      <trkpt lat="42.603614000" lon="-2.866962000">
        <ele>495.00</ele>
        <time>2019-03-02T01:03:19Z</time>
      </trkpt>
      <trkpt lat="42.603490000" lon="-2.866900000">
        <ele>494.80</ele>
        <time>2019-03-02T01:03:21Z</time>
      </trkpt>
      <trkpt lat="42.603167000" lon="-2.866796000">
        <ele>493.80</ele>
        <time>2019-03-02T01:03:26Z</time>
      </trkpt>
      <trkpt lat="42.602887000" lon="-2.866683000">
        <ele>493.20</ele>
        <time>2019-03-02T01:03:30Z</time>
      </trkpt>
      <trkpt lat="42.602545000" lon="-2.866409000">
        <ele>492.80</ele>
        <time>2019-03-02T01:03:35Z</time>
      </trkpt>
      <trkpt lat="42.602410000" lon="-2.866322000">
        <ele>491.20</ele>
        <time>2019-03-02T01:03:37Z</time>
      </trkpt>
      <trkpt lat="42.602226000" lon="-2.866265000">
        <ele>488.80</ele>
        <time>2019-03-02T01:03:40Z</time>
      </trkpt>
      <trkpt lat="42.601929000" lon="-2.866352000">
        <ele>487.60</ele>
        <time>2019-03-02T01:03:44Z</time>
      </trkpt>
      <trkpt lat="42.601695000" lon="-2.866423000">
        <ele>487.40</ele>
        <time>2019-03-02T01:03:47Z</time>
      </trkpt>
      <trkpt lat="42.601566000" lon="-2.866357000">
        <ele>486.60</ele>
        <time>2019-03-02T01:03:49Z</time>
      </trkpt>
      <trkpt lat="42.601464000" lon="-2.866226000">
        <ele>485.00</ele>
        <time>2019-03-02T01:03:51Z</time>
      </trkpt>
      <trkpt lat="42.601363000" lon="-2.866079000">
        <ele>483.20</ele>
        <time>2019-03-02T01:03:53Z</time>
      </trkpt>
      <trkpt lat="42.601248000" lon="-2.865941000">
        <ele>482.00</ele>
        <time>2019-03-02T01:03:55Z</time>
      </trkpt>
      <trkpt lat="42.601019000" lon="-2.865636000">
        <ele>480.80</ele>
        <time>2019-03-02T01:03:59Z</time>
      </trkpt>
      <trkpt lat="42.600706000" lon="-2.865267000">
        <ele>479.40</ele>
        <time>2019-03-02T01:04:04Z</time>
      </trkpt>
      <trkpt lat="42.600517000" lon="-2.865064000">
        <ele>478.40</ele>
        <time>2019-03-02T01:04:07Z</time>
      </trkpt>
      <trkpt lat="42.600155000" lon="-2.864998000">
        <ele>477.20</ele>
        <time>2019-03-02T01:04:12Z</time>
      </trkpt>
      <trkpt lat="42.599890000" lon="-2.865040000">
        <ele>476.20</ele>
        <time>2019-03-02T01:04:16Z</time>
      </trkpt>
      <trkpt lat="42.599723000" lon="-2.865051000">
        <ele>477.20</ele>
        <time>2019-03-02T01:04:46Z</time>
      </trkpt>
      <trkpt lat="42.599558000" lon="-2.865030000">
        <ele>477.20</ele>
        <time>2019-03-02T01:04:51Z</time>
      </trkpt>
      <trkpt lat="42.599171000" lon="-2.864716000">
        <ele>476.20</ele>
        <time>2019-03-02T01:05:00Z</time>
      </trkpt>
      <trkpt lat="42.598890000" lon="-2.864574000">
        <ele>475.20</ele>
        <time>2019-03-02T01:05:05Z</time>
      </trkpt>
      <trkpt lat="42.598767000" lon="-2.864560000">
        <ele>474.80</ele>
        <time>2019-03-02T01:05:07Z</time>
      </trkpt>
      <trkpt lat="42.598576000" lon="-2.864550000">
        <ele>474.00</ele>
        <time>2019-03-02T01:05:10Z</time>
      </trkpt>
      <trkpt lat="42.598354000" lon="-2.864423000">
        <ele>472.80</ele>
        <time>2019-03-02T01:05:14Z</time>
      </trkpt>
      <trkpt lat="42.598249000" lon="-2.864234000">
        <ele>472.60</ele>
        <time>2019-03-02T01:05:17Z</time>
      </trkpt>
      <trkpt lat="42.597947000" lon="-2.863587000">
        <ele>471.60</ele>
        <time>2019-03-02T01:05:25Z</time>
      </trkpt>
      <trkpt lat="42.597744000" lon="-2.863132000">
        <ele>470.40</ele>
        <time>2019-03-02T01:05:30Z</time>
      </trkpt>
      <trkpt lat="42.597668000" lon="-2.862929000">
        <ele>469.00</ele>
        <time>2019-03-02T01:05:32Z</time>
      </trkpt>
      <trkpt lat="42.597588000" lon="-2.862491000">
        <ele>468.20</ele>
        <time>2019-03-02T01:05:36Z</time>
      </trkpt>
      <trkpt lat="42.597531000" lon="-2.862293000">
        <ele>466.80</ele>
        <time>2019-03-02T01:05:38Z</time>
      </trkpt>
      <trkpt lat="42.597423000" lon="-2.862166000">
        <ele>465.40</ele>
        <time>2019-03-02T01:05:40Z</time>
      </trkpt>
      <trkpt lat="42.597271000" lon="-2.861883000">
        <ele>464.40</ele>
        <time>2019-03-02T01:05:44Z</time>
      </trkpt>
      <trkpt lat="42.597198000" lon="-2.861656000">
        <ele>464.20</ele>
        <time>2019-03-02T01:05:47Z</time>
      </trkpt>
      <trkpt lat="42.597119000" lon="-2.861450000">
        <ele>464.20</ele>
        <time>2019-03-02T01:05:50Z</time>
      </trkpt>
      <trkpt lat="42.596927000" lon="-2.861193000">
        <ele>464.40</ele>
        <time>2019-03-02T01:05:55Z</time>
      </trkpt>
      <trkpt lat="42.596848000" lon="-2.861107000">
        <ele>465.20</ele>
        <time>2019-03-02T01:05:57Z</time>
      </trkpt>
      <trkpt lat="42.596684000" lon="-2.860871000">
        <ele>465.80</ele>
        <time>2019-03-02T01:06:02Z</time>
      </trkpt>
      <trkpt lat="42.596525000" lon="-2.860628000">
        <ele>467.00</ele>
        <time>2019-03-02T01:06:07Z</time>
      </trkpt>
      <trkpt lat="42.596472000" lon="-2.860529000">
        <ele>467.20</ele>
        <time>2019-03-02T01:06:09Z</time>
      </trkpt>
      <trkpt lat="42.596042000" lon="-2.860025000">
        <ele>467.80</ele>
        <time>2019-03-02T01:06:22Z</time>
      </trkpt>
      <trkpt lat="42.595873000" lon="-2.859693000">
        <ele>468.40</ele>
        <time>2019-03-02T01:06:29Z</time>
      </trkpt>
      <trkpt lat="42.595861000" lon="-2.859283000">
        <ele>468.80</ele>
        <time>2019-03-02T01:06:36Z</time>
      </trkpt>
      <trkpt lat="42.595824000" lon="-2.858981000">
        <ele>469.20</ele>
        <time>2019-03-02T01:06:43Z</time>
      </trkpt>
      <trkpt lat="42.595730000" lon="-2.858805000">
        <ele>470.40</ele>
        <time>2019-03-02T01:06:48Z</time>
      </trkpt>
      <trkpt lat="42.595628000" lon="-2.858614000">
        <ele>471.40</ele>
        <time>2019-03-02T01:06:53Z</time>
      </trkpt>
      <trkpt lat="42.595478000" lon="-2.858319000">
        <ele>472.00</ele>
        <time>2019-03-02T01:06:59Z</time>
      </trkpt>
      <trkpt lat="42.595644000" lon="-2.857845000">
        <ele>470.40</ele>
        <time>2019-03-02T01:07:15Z</time>
      </trkpt>
      <trkpt lat="42.595775000" lon="-2.857789000">
        <ele>469.20</ele>
        <time>2019-03-02T01:07:18Z</time>
      </trkpt>
      <trkpt lat="42.595876000" lon="-2.857739000">
        <ele>468.20</ele>
        <time>2019-03-02T01:07:20Z</time>
      </trkpt>
      <trkpt lat="42.595981000" lon="-2.857693000">
        <ele>466.60</ele>
        <time>2019-03-02T01:07:22Z</time>
      </trkpt>
      <trkpt lat="42.596125000" lon="-2.857558000">
        <ele>465.00</ele>
        <time>2019-03-02T01:07:25Z</time>
      </trkpt>
      <trkpt lat="42.596211000" lon="-2.857449000">
        <ele>463.60</ele>
        <time>2019-03-02T01:07:27Z</time>
      </trkpt>
      <trkpt lat="42.596257000" lon="-2.857224000">
        <ele>462.40</ele>
        <time>2019-03-02T01:07:30Z</time>
      </trkpt>
      <trkpt lat="42.596207000" lon="-2.857046000">
        <ele>460.80</ele>
        <time>2019-03-02T01:07:32Z</time>
      </trkpt>
      <trkpt lat="42.596146000" lon="-2.856891000">
        <ele>459.40</ele>
        <time>2019-03-02T01:07:34Z</time>
      </trkpt>
      <trkpt lat="42.596032000" lon="-2.856793000">
        <ele>457.20</ele>
        <time>2019-03-02T01:07:38Z</time>
      </trkpt>
      <trkpt lat="42.595918000" lon="-2.856767000">
        <ele>456.60</ele>
        <time>2019-03-02T01:07:41Z</time>
      </trkpt>
      <trkpt lat="42.595778000" lon="-2.856705000">
        <ele>456.00</ele>
        <time>2019-03-02T01:07:44Z</time>
      </trkpt>
      <trkpt lat="42.595718000" lon="-2.856610000">
        <ele>455.40</ele>
        <time>2019-03-02T01:07:47Z</time>
      </trkpt>
      <trkpt lat="42.595630000" lon="-2.856543000">
        <ele>453.80</ele>
        <time>2019-03-02T01:07:53Z</time>
      </trkpt>
      <trkpt lat="42.595531000" lon="-2.856540000">
        <ele>452.40</ele>
        <time>2019-03-02T01:07:59Z</time>
      </trkpt>
      <trkpt lat="42.595167000" lon="-2.857218000">
        <ele>453.60</ele>
        <time>2019-03-02T01:08:24Z</time>
      </trkpt>
      <trkpt lat="42.594688000" lon="-2.857697000">
        <ele>453.40</ele>
        <time>2019-03-02T01:08:36Z</time>
      </trkpt>
      <trkpt lat="42.594553000" lon="-2.857834000">
        <ele>452.80</ele>
        <time>2019-03-02T01:08:39Z</time>
      </trkpt>
      <trkpt lat="42.594277000" lon="-2.858122000">
        <ele>451.80</ele>
        <time>2019-03-02T01:08:45Z</time>
      </trkpt>
      <trkpt lat="42.593839000" lon="-2.858597000">
        <ele>451.20</ele>
        <time>2019-03-02T01:08:55Z</time>
      </trkpt>
      <trkpt lat="42.593568000" lon="-2.858845000">
        <ele>451.00</ele>
        <time>2019-03-02T01:09:01Z</time>
      </trkpt>
      <trkpt lat="42.593387000" lon="-2.859012000">
        <ele>451.00</ele>
        <time>2019-03-02T01:09:05Z</time>
      </trkpt>
      <trkpt lat="42.593027000" lon="-2.859270000">
        <ele>450.80</ele>
        <time>2019-03-02T01:09:12Z</time>
      </trkpt>
      <trkpt lat="42.592603000" lon="-2.859740000">
        <ele>450.20</ele>
        <time>2019-03-02T01:09:23Z</time>
      </trkpt>
      <trkpt lat="42.592390000" lon="-2.859970000">
        <ele>452.00</ele>
        <time>2019-03-02T01:09:33Z</time>
      </trkpt>
      <trkpt lat="42.592277000" lon="-2.860098000">
        <ele>454.20</ele>
        <time>2019-03-02T01:09:40Z</time>
      </trkpt>
      <trkpt lat="42.592101000" lon="-2.860273000">
        <ele>455.00</ele>
        <time>2019-03-02T01:09:45Z</time>
      </trkpt>
      <trkpt lat="42.591878000" lon="-2.860562000">
        <ele>454.40</ele>
        <time>2019-03-02T01:09:52Z</time>
      </trkpt>
      <trkpt lat="42.591766000" lon="-2.860528000">
        <ele>453.00</ele>
        <time>2019-03-02T01:09:55Z</time>
      </trkpt>
      <trkpt lat="42.591650000" lon="-2.860470000">
        <ele>452.40</ele>
        <time>2019-03-02T01:09:58Z</time>
      </trkpt>
      <trkpt lat="42.591549000" lon="-2.860388000">
        <ele>452.00</ele>
        <time>2019-03-02T01:10:01Z</time>
      </trkpt>
      <trkpt lat="42.591159000" lon="-2.860447000">
        <ele>453.00</ele>
        <time>2019-03-02T01:10:17Z</time>
      </trkpt>
      <trkpt lat="42.590983000" lon="-2.860409000">
        <ele>455.60</ele>
        <time>2019-03-02T01:10:25Z</time>
      </trkpt>
      <trkpt lat="42.590799000" lon="-2.860327000">
        <ele>458.00</ele>
        <time>2019-03-02T01:10:34Z</time>
      </trkpt>
      <trkpt lat="42.590591000" lon="-2.860247000">
        <ele>460.20</ele>
        <time>2019-03-02T01:10:54Z</time>
      </trkpt>
      <trkpt lat="42.590290000" lon="-2.860109000">
        <ele>461.40</ele>
        <time>2019-03-02T01:11:07Z</time>
      </trkpt>
      <trkpt lat="42.590172000" lon="-2.860064000">
        <ele>462.60</ele>
        <time>2019-03-02T01:11:12Z</time>
      </trkpt>
      <trkpt lat="42.590031000" lon="-2.860027000">
        <ele>463.60</ele>
        <time>2019-03-02T01:11:18Z</time>
      </trkpt>
      <trkpt lat="42.589881000" lon="-2.859994000">
        <ele>464.80</ele>
        <time>2019-03-02T01:11:24Z</time>
      </trkpt>
      <trkpt lat="42.589735000" lon="-2.859960000">
        <ele>465.80</ele>
        <time>2019-03-02T01:11:30Z</time>
      </trkpt>
      <trkpt lat="42.589573000" lon="-2.859902000">
        <ele>466.80</ele>
        <time>2019-03-02T01:11:37Z</time>
      </trkpt>
      <trkpt lat="42.589412000" lon="-2.859813000">
        <ele>468.20</ele>
        <time>2019-03-02T01:11:44Z</time>
      </trkpt>
      <trkpt lat="42.589261000" lon="-2.859650000">
        <ele>469.20</ele>
        <time>2019-03-02T01:11:52Z</time>
      </trkpt>
      <trkpt lat="42.589129000" lon="-2.859513000">
        <ele>470.20</ele>
        <time>2019-03-02T01:11:59Z</time>
      </trkpt>
      <trkpt lat="42.589005000" lon="-2.859410000">
        <ele>471.20</ele>
        <time>2019-03-02T01:12:05Z</time>
      </trkpt>
      <trkpt lat="42.588866000" lon="-2.859351000">
        <ele>472.40</ele>
        <time>2019-03-02T01:12:11Z</time>
      </trkpt>
      <trkpt lat="42.588728000" lon="-2.859316000">
        <ele>473.40</ele>
        <time>2019-03-02T01:12:17Z</time>
      </trkpt>
      <trkpt lat="42.588560000" lon="-2.859279000">
        <ele>474.60</ele>
        <time>2019-03-02T01:12:24Z</time>
      </trkpt>
      <trkpt lat="42.588395000" lon="-2.859325000">
        <ele>475.60</ele>
        <time>2019-03-02T01:12:32Z</time>
      </trkpt>
      <trkpt lat="42.588218000" lon="-2.859424000">
        <ele>476.80</ele>
        <time>2019-03-02T01:12:38Z</time>
      </trkpt>
      <trkpt lat="42.587711000" lon="-2.859762000">
        <ele>477.60</ele>
        <time>2019-03-02T01:12:53Z</time>
      </trkpt>
      <trkpt lat="42.587583000" lon="-2.859814000">
        <ele>477.80</ele>
        <time>2019-03-02T01:12:56Z</time>
      </trkpt>
      <trkpt lat="42.586994000" lon="-2.860067000">
        <ele>478.00</ele>
        <time>2019-03-02T01:13:09Z</time>
      </trkpt>
      <trkpt lat="42.586463000" lon="-2.860299000">
        <ele>477.80</ele>
        <time>2019-03-02T01:13:19Z</time>
      </trkpt>
      <trkpt lat="42.586124000" lon="-2.860459000">
        <ele>476.60</ele>
        <time>2019-03-02T01:13:24Z</time>
      </trkpt>
      <trkpt lat="42.585902000" lon="-2.860548000">
        <ele>475.60</ele>
        <time>2019-03-02T01:13:27Z</time>
      </trkpt>
      <trkpt lat="42.585573000" lon="-2.860597000">
        <ele>474.40</ele>
        <time>2019-03-02T01:13:31Z</time>
      </trkpt>
      <trkpt lat="42.585307000" lon="-2.860538000">
        <ele>473.40</ele>
        <time>2019-03-02T01:13:34Z</time>
      </trkpt>
      <trkpt lat="42.585044000" lon="-2.860395000">
        <ele>472.20</ele>
        <time>2019-03-02T01:13:37Z</time>
      </trkpt>
      <trkpt lat="42.584794000" lon="-2.860223000">
        <ele>470.60</ele>
        <time>2019-03-02T01:13:40Z</time>
      </trkpt>
      <trkpt lat="42.584634000" lon="-2.860110000">
        <ele>469.00</ele>
        <time>2019-03-02T01:13:42Z</time>
      </trkpt>
      <trkpt lat="42.584475000" lon="-2.860004000">
        <ele>467.60</ele>
        <time>2019-03-02T01:13:44Z</time>
      </trkpt>
      <trkpt lat="42.584314000" lon="-2.859898000">
        <ele>466.40</ele>
        <time>2019-03-02T01:13:46Z</time>
      </trkpt>
      <trkpt lat="42.583834000" lon="-2.859572000">
        <ele>465.00</ele>
        <time>2019-03-02T01:13:52Z</time>
      </trkpt>
      <trkpt lat="42.583289000" lon="-2.859242000">
        <ele>464.60</ele>
        <time>2019-03-02T01:13:59Z</time>
      </trkpt>
      <trkpt lat="42.583058000" lon="-2.859112000">
        <ele>464.20</ele>
        <time>2019-03-02T01:14:02Z</time>
      </trkpt>
      <trkpt lat="42.582515000" lon="-2.858778000">
        <ele>463.60</ele>
        <time>2019-03-02T01:14:09Z</time>
      </trkpt>
      <trkpt lat="42.582355000" lon="-2.858668000">
        <ele>462.60</ele>
        <time>2019-03-02T01:14:11Z</time>
      </trkpt>
      <trkpt lat="42.582104000" lon="-2.858534000">
        <ele>461.80</ele>
        <time>2019-03-02T01:14:14Z</time>
      </trkpt>
      <trkpt lat="42.582013000" lon="-2.858522000">
        <ele>461.40</ele>
        <time>2019-03-02T01:14:15Z</time>
      </trkpt>
      <trkpt lat="42.581826000" lon="-2.858547000">
        <ele>460.20</ele>
        <time>2019-03-02T01:14:17Z</time>
      </trkpt>
      <trkpt lat="42.581634000" lon="-2.858564000">
        <ele>459.00</ele>
        <time>2019-03-02T01:14:19Z</time>
      </trkpt>
      <trkpt lat="42.581360000" lon="-2.858465000">
        <ele>457.60</ele>
        <time>2019-03-02T01:14:22Z</time>
      </trkpt>
      <trkpt lat="42.581158000" lon="-2.858212000">
        <ele>456.60</ele>
        <time>2019-03-02T01:14:25Z</time>
      </trkpt>
      <trkpt lat="42.581024000" lon="-2.857878000">
        <ele>455.00</ele>
        <time>2019-03-02T01:14:28Z</time>
      </trkpt>
      <trkpt lat="42.580965000" lon="-2.857505000">
        <ele>454.00</ele>
        <time>2019-03-02T01:14:31Z</time>
      </trkpt>
      <trkpt lat="42.580981000" lon="-2.857247000">
        <ele>453.20</ele>
        <time>2019-03-02T01:14:33Z</time>
      </trkpt>
      <trkpt lat="42.580996000" lon="-2.857116000">
        <ele>452.60</ele>
        <time>2019-03-02T01:14:34Z</time>
      </trkpt>
      <trkpt lat="42.581005000" lon="-2.856981000">
        <ele>452.00</ele>
        <time>2019-03-02T01:14:35Z</time>
      </trkpt>
      <trkpt lat="42.581003000" lon="-2.856848000">
        <ele>451.40</ele>
        <time>2019-03-02T01:14:36Z</time>
      </trkpt>
      <trkpt lat="42.580967000" lon="-2.856587000">
        <ele>450.20</ele>
        <time>2019-03-02T01:14:38Z</time>
      </trkpt>
      <trkpt lat="42.580908000" lon="-2.856337000">
        <ele>448.00</ele>
        <time>2019-03-02T01:14:40Z</time>
      </trkpt>
      <trkpt lat="42.580827000" lon="-2.856107000">
        <ele>446.80</ele>
        <time>2019-03-02T01:14:42Z</time>
      </trkpt>
      <trkpt lat="42.580778000" lon="-2.856001000">
        <ele>446.20</ele>
        <time>2019-03-02T01:14:43Z</time>
      </trkpt>
      <trkpt lat="42.580564000" lon="-2.855625000">
        <ele>444.40</ele>
        <time>2019-03-02T01:14:47Z</time>
      </trkpt>
      <trkpt lat="42.580196000" lon="-2.855052000">
        <ele>444.20</ele>
        <time>2019-03-02T01:14:54Z</time>
      </trkpt>
      <trkpt lat="42.579866000" lon="-2.854403000">
        <ele>444.60</ele>
        <time>2019-03-02T01:15:02Z</time>
      </trkpt>
      <trkpt lat="42.579566000" lon="-2.853793000">
        <ele>444.80</ele>
        <time>2019-03-02T01:15:10Z</time>
      </trkpt>
      <trkpt lat="42.579233000" lon="-2.853165000">
        <ele>444.80</ele>
        <time>2019-03-02T01:15:19Z</time>
      </trkpt>
      <trkpt lat="42.578928000" lon="-2.852530000">
        <ele>444.40</ele>
        <time>2019-03-02T01:15:28Z</time>
      </trkpt>
      <trkpt lat="42.578866000" lon="-2.852076000">
        <ele>444.20</ele>
        <time>2019-03-02T01:15:34Z</time>
      </trkpt>
      <trkpt lat="42.578923000" lon="-2.851299000">
        <ele>444.20</ele>
        <time>2019-03-02T01:15:44Z</time>
      </trkpt>
      <trkpt lat="42.578956000" lon="-2.850689000">
        <ele>444.40</ele>
        <time>2019-03-02T01:15:55Z</time>
      </trkpt>
      <trkpt lat="42.578844000" lon="-2.850581000">
        <ele>445.80</ele>
        <time>2019-03-02T01:16:01Z</time>
      </trkpt>
      <trkpt lat="42.578583000" lon="-2.850348000">
        <ele>448.00</ele>
        <time>2019-03-02T01:16:10Z</time>
      </trkpt>
      <trkpt lat="42.578226000" lon="-2.850022000">
        <ele>449.00</ele>
        <time>2019-03-02T01:16:26Z</time>
      </trkpt>
      <trkpt lat="42.577732000" lon="-2.849847000">
        <ele>449.80</ele>
        <time>2019-03-02T01:16:47Z</time>
      </trkpt>
      <trkpt lat="42.577440000" lon="-2.850532000">
        <ele>450.00</ele>
        <time>2019-03-02T01:17:01Z</time>
      </trkpt>
      <trkpt lat="42.577409000" lon="-2.850655000">
        <ele>450.00</ele>
        <time>2019-03-02T01:17:03Z</time>
      </trkpt>
      <trkpt lat="42.577364000" lon="-2.850979000">
        <ele>448.80</ele>
        <time>2019-03-02T01:17:10Z</time>
      </trkpt>
      <trkpt lat="42.577139000" lon="-2.851663000">
        <ele>449.40</ele>
        <time>2019-03-02T01:17:30Z</time>
      </trkpt>
      <trkpt lat="42.577129000" lon="-2.851788000">
        <ele>450.00</ele>
        <time>2019-03-02T01:17:33Z</time>
      </trkpt>
      <trkpt lat="42.577078000" lon="-2.852167000">
        <ele>451.20</ele>
        <time>2019-03-02T01:17:43Z</time>
      </trkpt>
      <trkpt lat="42.577012000" lon="-2.852395000">
        <ele>452.20</ele>
        <time>2019-03-02T01:17:50Z</time>
      </trkpt>
      <trkpt lat="42.576863000" lon="-2.852685000">
        <ele>453.40</ele>
        <time>2019-03-02T01:17:59Z</time>
      </trkpt>
      <trkpt lat="42.576788000" lon="-2.852803000">
        <ele>454.00</ele>
        <time>2019-03-02T01:18:03Z</time>
      </trkpt>
      <trkpt lat="42.576516000" lon="-2.852936000">
        <ele>455.00</ele>
        <time>2019-03-02T01:18:14Z</time>
      </trkpt>
      <trkpt lat="42.576415000" lon="-2.853175000">
        <ele>455.40</ele>
        <time>2019-03-02T01:18:21Z</time>
      </trkpt>
      <trkpt lat="42.576279000" lon="-2.853437000">
        <ele>456.40</ele>
        <time>2019-03-02T01:18:29Z</time>
      </trkpt>
      <trkpt lat="42.576114000" lon="-2.853727000">
        <ele>457.60</ele>
        <time>2019-03-02T01:18:39Z</time>
      </trkpt>
      <trkpt lat="42.575995000" lon="-2.853905000">
        <ele>458.60</ele>
        <time>2019-03-02T01:18:48Z</time>
      </trkpt>
      <trkpt lat="42.575954000" lon="-2.853904000">
        <ele>459.40</ele>
        <time>2019-03-02T01:18:52Z</time>
      </trkpt>
    </trkseg>
  </trk>
</gpx>
